Time,TemperatureF,DewpointF,PressureIn,WindDirection,WindDirectionDegrees,WindSpeedMPH,WindSpeedGustMPH,Humidity,HourlyPrecipIn,Conditions,Clouds,dailyrainin,SoftwareType,DateUTC
2013-02-11 00:02:00,34.7,32.6,29.37,SW,217,9.0,16.1,92,0.00,RA,,0.00,WeatherDisplay:10.37,2013-02-11 06:02:00,
2013-02-11 00:07:00,34.6,32.5,29.37,SSW,208,12.1,19.1,92,0.00,RA,,0.00,WeatherDisplay:10.37,2013-02-11 06:07:00,
2013-02-11 00:12:00,34.3,31.9,29.37,WSW,253,13.0,18.4,91,0.00,CLR,,0.00,WeatherDisplay:10.37,2013-02-11 06:12:00,
2013-02-11 00:17:00,34.3,31.9,29.37,SW,234,10.2,16.1,91,0.00,CLR,,0.00,WeatherDisplay:10.37,2013-02-11 06:17:00,
2013-02-11 00:18:00,34.3,31.9,29.37,West,265,10.7,17.1,91,0.00,CLR,,0.00,WeatherDisplay:10.37,2013-02-11 06:18:00,
2013-02-11 00:22:00,34.3,31.9,29.37,WSW,241,9.0,15.0,91,0.00,CLR,,0.00,WeatherDisplay:10.37,2013-02-11 06:22:00,
2013-02-11 00:23:00,34.2,31.8,29.37,SW,234,9.9,16.5,91,0.00,CLR,,0.00,WeatherDisplay:10.37,2013-02-11 06:23:00,
2013-02-11 00:27:00,34.1,32.0,29.37,SSW,206,13.2,16.7,92,0.00,CLR,,0.00,WeatherDisplay:10.37,2013-02-11 06:27:00,
2013-02-11 00:28:00,34.0,31.9,29.37,SW,232,13.1,16.1,92,0.00,CLR,,0.00,WeatherDisplay:10.37,2013-02-11 06:28:00,
2013-02-11 00:33:00,33.9,31.8,29.37,SW,223,9.6,17.3,92,0.00,CLR,,0.00,WeatherDisplay:10.37,2013-02-11 06:33:00,
2013-02-11 00:38:00,33.8,31.7,29.37,SW,236,11.8,15.0,92,0.00,CLR,,0.00,WeatherDisplay:10.37,2013-02-11 06:38:00,
2013-02-11 00:43:00,33.7,31.6,29.36,West,274,9.6,13.8,92,0.00,CLR,,0.00,WeatherDisplay:10.37,2013-02-11 06:43:00,
2013-02-11 00:48:00,33.6,31.5,29.36,SSW,202,10.1,14.2,92,0.00,CLR,,0.00,WeatherDisplay:10.37,2013-02-11 06:48:00,
2013-02-11 00:53:00,33.5,31.4,29.36,SW,220,10.5,18.4,92,0.00,CLR,,0.00,WeatherDisplay:10.37,2013-02-11 06:53:00,
2013-02-11 00:58:00,33.5,31.4,29.36,SW,232,13.6,17.3,92,0.00,CLR,,0.00,WeatherDisplay:10.37,2013-02-11 06:58:00,
2013-02-11 01:03:00,33.5,31.4,29.36,SW,230,10.0,16.1,92,0.00,CLR,,0.00,WeatherDisplay:10.37,2013-02-11 07:03:00,
2013-02-11 01:08:00,33.4,31.3,29.37,SSW,213,10.0,13.8,92,0.00,CLR,,0.00,WeatherDisplay:10.37,2013-02-11 07:08:00,
2013-02-11 01:10:00,33.3,31.2,29.37,SSW,210,10.7,18.4,92,0.00,CLR,,0.00,WeatherDisplay:10.37,2013-02-11 07:10:00,
2013-02-11 01:13:00,33.3,31.2,29.37,SSW,200,13.4,20.7,92,0.00,CLR,,0.00,WeatherDisplay:10.37,2013-02-11 07:13:00,
2013-02-11 01:15:00,33.2,31.1,29.37,SW,234,12.5,19.6,92,0.00,CLR,,0.00,WeatherDisplay:10.37,2013-02-11 07:15:00,
2013-02-11 01:18:00,33.2,31.1,29.37,WSW,250,8.4,15.0,92,0.00,CLR,,0.00,WeatherDisplay:10.37,2013-02-11 07:18:00,
2013-02-11 01:19:00,33.2,31.1,29.37,SW,230,8.6,15.0,92,0.00,CLR,,0.00,WeatherDisplay:10.37,2013-02-11 07:19:00,
2013-02-11 01:20:00,33.1,31.0,29.36,WSW,243,10.6,13.8,92,0.00,CLR,,0.00,WeatherDisplay:10.37,2013-02-11 07:20:00,
2013-02-11 01:24:00,33.0,31.2,29.36,WSW,257,9.2,17.3,93,0.00,CLR,,0.00,WeatherDisplay:10.37,2013-02-11 07:24:00,
2013-02-11 01:25:00,32.9,31.1,29.37,SW,223,9.1,12.7,93,0.00,CLR,,0.00,WeatherDisplay:10.37,2013-02-11 07:25:00,
2013-02-11 01:29:00,32.8,31.0,29.36,WSW,250,11.0,15.0,93,0.00,CLR,,0.00,WeatherDisplay:10.37,2013-02-11 07:29:00,
2013-02-11 01:30:00,32.9,31.1,29.36,SW,236,12.0,17.9,93,0.00,CLR,,0.00,WeatherDisplay:10.37,2013-02-11 07:30:00,
2013-02-11 01:34:00,32.7,30.6,29.36,SSW,208,15.7,24.2,92,0.00,CLR,,0.00,WeatherDisplay:10.37,2013-02-11 07:34:00,
2013-02-11 01:35:00,32.7,30.4,29.36,SSW,213,18.4,28.8,91,0.00,CLR,,0.00,WeatherDisplay:10.37,2013-02-11 07:35:00,
2013-02-11 01:39:00,32.6,30.0,29.37,SSW,206,13.2,24.2,90,0.00,CLR,,0.00,WeatherDisplay:10.37,2013-02-11 07:39:00,
2013-02-11 01:40:00,32.7,30.1,29.37,SSW,196,11.6,19.6,90,0.00,CLR,,0.00,WeatherDisplay:10.37,2013-02-11 07:40:00,
2013-02-11 01:44:00,32.5,29.9,29.36,SW,234,12.2,23.0,90,0.00,CLR,,0.00,WeatherDisplay:10.37,2013-02-11 07:44:00,
2013-02-11 01:45:00,32.6,30.0,29.37,WSW,248,12.4,20.7,90,0.00,CLR,,0.00,WeatherDisplay:10.37,2013-02-11 07:45:00,
2013-02-11 01:49:00,32.4,29.8,29.37,WSW,248,12.3,19.6,90,0.00,CLR,,0.00,WeatherDisplay:10.37,2013-02-11 07:49:00,
2013-02-11 01:50:00,32.4,29.8,29.37,SW,222,14.7,24.2,90,0.00,CLR,,0.00,WeatherDisplay:10.37,2013-02-11 07:50:00,
2013-02-11 01:54:00,32.4,29.8,29.37,SW,236,10.7,19.6,90,0.00,CLR,,0.00,WeatherDisplay:10.37,2013-02-11 07:54:00,
2013-02-11 01:56:00,32.4,29.8,29.37,SW,227,11.9,19.6,90,0.00,CLR,,0.00,WeatherDisplay:10.37,2013-02-11 07:56:00,
2013-02-11 01:59:00,32.3,29.7,29.37,SW,229,12.0,18.4,90,0.00,CLR,,0.00,WeatherDisplay:10.37,2013-02-11 07:59:00,
2013-02-11 02:00:00,32.3,29.7,29.37,SW,230,11.8,20.7,90,0.00,CLR,,0.00,WeatherDisplay:10.37,2013-02-11 08:00:00,
2013-02-11 02:01:00,32.2,29.6,29.37,SSW,212,10.0,21.9,90,0.00,CLR,,0.00,WeatherDisplay:10.37,2013-02-11 08:01:00,
2013-02-11 02:04:00,32.1,29.5,29.37,SSW,209,13.1,27.4,90,0.00,CLR,,0.00,WeatherDisplay:10.37,2013-02-11 08:04:00,
2013-02-11 02:05:00,32.2,29.6,29.37,SW,226,14.1,27.6,90,0.00,CLR,,0.00,WeatherDisplay:10.37,2013-02-11 08:05:00,
2013-02-11 02:06:00,32.1,29.5,29.37,WSW,243,8.9,12.7,90,0.00,CLR,,0.00,WeatherDisplay:10.37,2013-02-11 08:06:00,
2013-02-11 02:09:00,32.2,29.6,29.38,West,264,14.2,22.3,90,0.00,CLR,,0.00,WeatherDisplay:10.37,2013-02-11 08:09:00,
2013-02-11 02:10:00,32.0,29.1,29.37,West,268,15.0,26.5,89,0.00,CLR,,0.00,WeatherDisplay:10.37,2013-02-11 08:10:00,
2013-02-11 02:11:00,32.1,29.2,29.37,WSW,254,10.8,19.6,89,0.00,CLR,,0.00,WeatherDisplay:10.37,2013-02-11 08:11:00,
2013-02-11 02:14:00,32.0,29.4,29.37,WSW,257,11.1,24.2,90,0.00,CLR,,0.00,WeatherDisplay:10.37,2013-02-11 08:14:00,
2013-02-11 02:15:00,32.0,29.4,29.37,WSW,248,13.3,18.4,90,0.00,CLR,,0.00,WeatherDisplay:10.37,2013-02-11 08:15:00,
2013-02-11 02:16:00,32.0,29.4,29.37,WSW,247,13.5,25.3,90,0.00,CLR,,0.00,WeatherDisplay:10.37,2013-02-11 08:16:00,
2013-02-11 02:19:00,31.9,29.3,29.37,WSW,244,10.1,19.6,90,0.00,CLR,,0.00,WeatherDisplay:10.37,2013-02-11 08:19:00,
2013-02-11 02:20:00,31.9,29.3,29.37,WSW,256,8.9,17.3,90,0.00,CLR,,0.00,WeatherDisplay:10.37,2013-02-11 08:20:00,
2013-02-11 02:21:00,31.9,29.3,29.37,NW,318,10.1,15.0,90,0.00,CLR,,0.00,WeatherDisplay:10.37,2013-02-11 08:21:00,
2013-02-11 02:24:00,31.8,29.2,29.37,SW,227,12.5,18.4,90,0.00,CLR,,0.00,WeatherDisplay:10.37,2013-02-11 08:24:00,
2013-02-11 02:25:00,31.8,29.2,29.37,WSW,244,13.6,24.2,90,0.00,CLR,,0.00,WeatherDisplay:10.37,2013-02-11 08:25:00,
2013-02-11 02:27:00,31.8,29.2,29.37,SW,234,12.6,23.2,90,0.00,CLR,,0.00,WeatherDisplay:10.37,2013-02-11 08:27:00,
2013-02-11 02:29:00,31.8,29.2,29.37,SW,227,12.8,23.0,90,0.00,CLR,,0.00,WeatherDisplay:10.37,2013-02-11 08:29:00,
2013-02-11 02:30:00,31.8,29.2,29.37,SW,233,12.4,23.0,90,0.00,CLR,,0.00,WeatherDisplay:10.37,2013-02-11 08:30:00,
2013-02-11 02:31:00,31.9,29.3,29.37,SW,224,12.7,18.4,90,0.00,CLR,,0.00,WeatherDisplay:10.37,2013-02-11 08:31:00,
2013-02-11 02:32:00,31.8,29.2,29.37,WNW,298,11.0,24.2,90,0.00,CLR,,0.00,WeatherDisplay:10.37,2013-02-11 08:32:00,
2013-02-11 02:34:00,31.7,29.1,29.37,SSW,209,12.5,17.3,90,0.00,CLR,,0.00,WeatherDisplay:10.37,2013-02-11 08:34:00,
2013-02-11 02:35:00,31.8,29.2,29.37,SW,222,12.6,20.5,90,0.00,CLR,,0.00,WeatherDisplay:10.37,2013-02-11 08:35:00,
2013-02-11 02:36:00,31.8,29.2,29.37,SW,227,13.3,21.9,90,0.00,CLR,,0.00,WeatherDisplay:10.37,2013-02-11 08:36:00,
2013-02-11 02:37:00,31.7,29.4,29.37,SW,233,13.9,23.0,91,0.00,CLR,,0.00,WeatherDisplay:10.37,2013-02-11 08:37:00,
2013-02-11 02:39:00,31.8,29.2,29.37,South,185,13.3,23.0,90,0.00,CLR,,0.00,WeatherDisplay:10.37,2013-02-11 08:39:00,
2013-02-11 02:40:00,31.7,29.1,29.37,SW,227,11.6,23.0,90,0.00,CLR,,0.00,WeatherDisplay:10.37,2013-02-11 08:40:00,
2013-02-11 02:41:00,31.7,29.1,29.37,WSW,251,12.7,25.3,90,0.00,CLR,,0.00,WeatherDisplay:10.37,2013-02-11 08:41:00,
2013-02-11 02:42:00,31.7,29.1,29.37,SW,226,11.2,25.3,90,0.00,CLR,,0.00,WeatherDisplay:10.37,2013-02-11 08:42:00,
2013-02-11 02:44:00,31.7,29.1,29.37,SW,232,10.8,17.3,90,0.00,CLR,,0.00,WeatherDisplay:10.37,2013-02-11 08:44:00,
2013-02-11 02:45:00,31.7,29.1,29.37,SW,226,9.8,17.3,90,0.00,CLR,,0.00,WeatherDisplay:10.37,2013-02-11 08:45:00,
2013-02-11 02:46:00,31.7,29.1,29.37,SW,223,10.0,18.4,90,0.00,CLR,,0.00,WeatherDisplay:10.37,2013-02-11 08:46:00,
2013-02-11 02:47:00,31.6,29.0,29.37,WSW,237,11.6,18.4,90,0.00,CLR,,0.00,WeatherDisplay:10.37,2013-02-11 08:47:00,
2013-02-11 02:49:00,31.6,29.0,29.37,WSW,247,8.6,14.7,90,0.00,CLR,,0.00,WeatherDisplay:10.37,2013-02-11 08:49:00,
2013-02-11 02:50:00,31.6,29.0,29.37,West,264,10.4,13.8,90,0.00,CLR,,0.00,WeatherDisplay:10.37,2013-02-11 08:50:00,
2013-02-11 02:51:00,31.6,29.0,29.38,WSW,248,14.5,23.0,90,0.00,CLR,,0.00,WeatherDisplay:10.37,2013-02-11 08:51:00,
2013-02-11 02:52:00,31.5,28.9,29.37,SSW,205,14.5,23.0,90,0.00,CLR,,0.00,WeatherDisplay:10.37,2013-02-11 08:52:00,
2013-02-11 02:54:00,31.4,28.5,29.37,WSW,247,16.3,28.8,89,0.00,CLR,,0.00,WeatherDisplay:10.37,2013-02-11 08:54:00,
2013-02-11 02:55:00,31.4,28.5,29.37,WSW,250,17.3,28.8,89,0.00,CLR,,0.00,WeatherDisplay:10.37,2013-02-11 08:55:00,
2013-02-11 02:57:00,31.5,28.6,29.37,SW,226,12.1,16.1,89,0.00,CLR,,0.00,WeatherDisplay:10.37,2013-02-11 08:57:00,
2013-02-11 03:00:00,31.6,28.7,29.37,WSW,246,13.1,28.8,89,0.00,CLR,,0.00,WeatherDisplay:10.37,2013-02-11 09:00:00,
2013-02-11 03:02:00,31.5,28.6,29.38,West,260,14.3,19.6,89,0.00,CLR,,0.00,WeatherDisplay:10.37,2013-02-11 09:02:00,
2013-02-11 03:05:00,31.6,28.7,29.38,SW,215,10.2,13.8,89,0.00,CLR,,0.00,WeatherDisplay:10.37,2013-02-11 09:05:00,
2013-02-11 03:07:00,31.5,28.6,29.37,SW,224,9.7,17.3,89,0.00,CLR,,0.00,WeatherDisplay:10.37,2013-02-11 09:07:00,
2013-02-11 03:08:00,31.5,28.6,29.37,SW,233,11.0,19.6,89,0.00,CLR,,0.00,WeatherDisplay:10.37,2013-02-11 09:08:00,
2013-02-11 03:10:00,31.4,28.5,29.38,SW,236,12.2,19.6,89,0.00,CLR,,0.00,WeatherDisplay:10.37,2013-02-11 09:10:00,
2013-02-11 03:12:00,31.4,28.5,29.38,SW,233,10.1,16.1,89,0.00,CLR,,0.00,WeatherDisplay:10.37,2013-02-11 09:12:00,
2013-02-11 03:13:00,31.3,28.4,29.38,South,189,13.8,24.2,89,0.00,CLR,,0.00,WeatherDisplay:10.37,2013-02-11 09:13:00,
2013-02-11 03:15:00,31.3,28.4,29.38,WSW,237,13.4,28.8,89,0.00,CLR,,0.00,WeatherDisplay:10.37,2013-02-11 09:15:00,
2013-02-11 03:18:00,31.2,28.3,29.38,SW,227,12.8,24.1,89,0.00,CLR,,0.00,WeatherDisplay:10.37,2013-02-11 09:18:00,
2013-02-11 03:20:00,31.1,28.2,29.38,SW,219,12.5,20.7,89,0.00,CLR,,0.00,WeatherDisplay:10.37,2013-02-11 09:20:00,
2013-02-11 03:23:00,31.0,28.4,29.38,WSW,241,15.6,19.6,90,0.00,CLR,,0.00,WeatherDisplay:10.37,2013-02-11 09:23:00,
2013-02-11 03:25:00,30.9,28.3,29.38,SW,223,12.5,23.8,90,0.00,CLR,,0.00,WeatherDisplay:10.37,2013-02-11 09:25:00,
2013-02-11 03:28:00,30.8,28.5,29.38,West,263,12.6,22.7,91,0.00,CLR,,0.00,WeatherDisplay:10.37,2013-02-11 09:28:00,
2013-02-11 03:30:00,30.8,28.5,29.38,South,189,12.3,18.4,91,0.00,CLR,,0.00,WeatherDisplay:10.37,2013-02-11 09:30:00,
2013-02-11 03:31:00,30.7,28.4,29.38,SW,226,13.0,21.4,91,0.00,CLR,,0.00,WeatherDisplay:10.37,2013-02-11 09:31:00,
2013-02-11 03:33:00,30.6,28.3,29.39,WSW,237,11.7,20.7,91,0.00,CLR,,0.00,WeatherDisplay:10.37,2013-02-11 09:33:00,
2013-02-11 03:34:00,30.7,28.4,29.39,WSW,253,11.5,20.7,91,0.00,CLR,,0.00,WeatherDisplay:10.37,2013-02-11 09:34:00,
2013-02-11 03:35:00,30.6,28.3,29.38,SW,232,12.5,20.7,91,0.00,CLR,,0.00,WeatherDisplay:10.37,2013-02-11 09:35:00,
2013-02-11 03:36:00,30.6,28.3,29.38,WSW,241,11.6,20.7,91,0.00,CLR,,0.00,WeatherDisplay:10.37,2013-02-11 09:36:00,
2013-02-11 03:38:00,30.6,28.3,29.38,West,263,11.0,13.8,91,0.00,CLR,,0.00,WeatherDisplay:10.37,2013-02-11 09:38:00,
2013-02-11 03:39:00,30.6,28.3,29.38,WSW,246,11.0,13.8,91,0.00,CLR,,0.00,WeatherDisplay:10.37,2013-02-11 09:39:00,
2013-02-11 03:40:00,30.5,28.2,29.38,WSW,257,11.0,16.1,91,0.00,CLR,,0.00,WeatherDisplay:10.37,2013-02-11 09:40:00,
2013-02-11 03:41:00,30.5,28.2,29.38,West,264,10.7,16.1,91,0.00,CLR,,0.00,WeatherDisplay:10.37,2013-02-11 09:41:00,
2013-02-11 03:44:00,30.5,28.2,29.38,WSW,241,11.0,20.7,91,0.00,CLR,,0.00,WeatherDisplay:10.37,2013-02-11 09:44:00,
2013-02-11 03:45:00,30.5,28.2,29.38,West,263,11.5,20.7,91,0.00,CLR,,0.00,WeatherDisplay:10.37,2013-02-11 09:45:00,
2013-02-11 03:46:00,30.5,28.2,29.38,SW,236,14.8,25.3,91,0.00,CLR,,0.00,WeatherDisplay:10.37,2013-02-11 09:46:00,
2013-02-11 03:49:00,30.4,28.1,29.38,SW,236,14.6,25.3,91,0.00,CLR,,0.00,WeatherDisplay:10.37,2013-02-11 09:49:00,
2013-02-11 03:51:00,30.4,28.1,29.38,West,264,9.5,20.7,91,0.00,CLR,,0.00,WeatherDisplay:10.37,2013-02-11 09:51:00,
2013-02-11 03:54:00,30.3,28.3,29.39,WSW,244,9.2,13.8,92,0.00,CLR,,0.00,WeatherDisplay:10.37,2013-02-11 09:54:00,
2013-02-11 03:56:00,30.3,28.3,29.39,WSW,254,9.9,17.3,92,0.00,CLR,,0.00,WeatherDisplay:10.37,2013-02-11 09:56:00,
2013-02-11 03:59:00,30.3,28.3,29.39,WSW,239,8.8,13.8,92,0.00,CLR,,0.00,WeatherDisplay:10.37,2013-02-11 09:59:00,
2013-02-11 04:01:00,30.2,28.4,29.39,West,261,11.6,18.4,93,0.00,CLR,,0.00,WeatherDisplay:10.37,2013-02-11 10:01:00,
2013-02-11 04:02:00,30.2,28.4,29.39,WNW,301,9.9,18.4,93,0.00,CLR,,0.00,WeatherDisplay:10.37,2013-02-11 10:02:00,
2013-02-11 04:04:00,30.2,28.4,29.39,SW,230,8.7,13.6,93,0.00,CLR,,0.00,WeatherDisplay:10.37,2013-02-11 10:04:00,
2013-02-11 04:06:00,30.2,28.4,29.39,WSW,251,9.4,13.8,93,0.00,CLR,,0.00,WeatherDisplay:10.37,2013-02-11 10:06:00,
2013-02-11 04:07:00,30.2,28.4,29.39,WSW,246,10.0,13.8,93,0.00,CLR,,0.00,WeatherDisplay:10.37,2013-02-11 10:07:00,
2013-02-11 04:09:00,30.1,28.3,29.39,SW,219,10.5,16.1,93,0.00,CLR,,0.00,WeatherDisplay:10.37,2013-02-11 10:09:00,
2013-02-11 04:10:00,30.1,28.3,29.39,WSW,239,9.7,16.1,93,0.00,CLR,,0.00,WeatherDisplay:10.37,2013-02-11 10:10:00,
2013-02-11 04:11:00,30.1,28.3,29.39,SW,229,10.3,21.0,93,0.00,CLR,,0.00,WeatherDisplay:10.37,2013-02-11 10:11:00,
2013-02-11 04:12:00,30.1,28.3,29.39,SW,215,13.2,18.5,93,0.00,CLR,,0.00,WeatherDisplay:10.37,2013-02-11 10:12:00,
2013-02-11 04:15:00,30.0,28.0,29.39,WSW,239,11.1,19.6,92,0.00,CLR,,0.00,WeatherDisplay:10.37,2013-02-11 10:15:00,
2013-02-11 04:16:00,29.9,27.9,29.39,SW,220,10.5,17.3,92,0.00,CLR,,0.00,WeatherDisplay:10.37,2013-02-11 10:16:00,
2013-02-11 04:17:00,30.0,28.0,29.39,WSW,254,12.3,17.3,92,0.00,CLR,,0.00,WeatherDisplay:10.37,2013-02-11 10:17:00,
2013-02-11 04:20:00,29.9,27.9,29.39,WSW,243,11.5,17.3,92,0.00,CLR,,0.00,WeatherDisplay:10.37,2013-02-11 10:20:00,
2013-02-11 04:22:00,29.8,27.5,29.39,West,265,15.0,24.1,91,0.00,CLR,,0.00,WeatherDisplay:10.37,2013-02-11 10:22:00,
2013-02-11 04:25:00,29.9,27.6,29.39,WNW,284,8.4,15.0,91,0.00,CLR,,0.00,WeatherDisplay:10.37,2013-02-11 10:25:00,
2013-02-11 04:27:00,29.9,27.6,29.39,WSW,253,11.3,15.7,91,0.00,CLR,,0.00,WeatherDisplay:10.37,2013-02-11 10:27:00,
2013-02-11 04:31:00,29.8,27.5,29.39,West,268,13.2,18.4,91,0.00,CLR,,0.00,WeatherDisplay:10.37,2013-02-11 10:31:00,
2013-02-11 04:32:00,29.8,27.5,29.39,WSW,248,10.3,20.7,91,0.00,CLR,,0.00,WeatherDisplay:10.37,2013-02-11 10:32:00,
2013-02-11 04:36:00,29.8,27.2,29.39,WNW,299,10.7,15.0,90,0.00,CLR,,0.00,WeatherDisplay:10.37,2013-02-11 10:36:00,
2013-02-11 04:37:00,29.7,27.1,29.40,SW,219,11.5,18.4,90,0.00,CLR,,0.00,WeatherDisplay:10.37,2013-02-11 10:37:00,
2013-02-11 04:41:00,29.7,27.1,29.40,WSW,248,11.0,15.6,90,0.00,CLR,,0.00,WeatherDisplay:10.37,2013-02-11 10:41:00,
2013-02-11 04:42:00,29.6,27.0,29.40,WSW,256,12.4,19.6,90,0.00,CLR,,0.00,WeatherDisplay:10.37,2013-02-11 10:42:00,
2013-02-11 04:46:00,29.6,27.0,29.39,WSW,250,14.3,21.9,90,0.00,CLR,,0.00,WeatherDisplay:10.37,2013-02-11 10:46:00,
2013-02-11 04:47:00,29.7,27.1,29.39,WSW,254,13.5,21.9,90,0.00,CLR,,0.00,WeatherDisplay:10.37,2013-02-11 10:47:00,
2013-02-11 04:51:00,29.6,26.8,29.40,West,260,11.9,19.6,89,0.00,CLR,,0.00,WeatherDisplay:10.37,2013-02-11 10:51:00,
2013-02-11 04:52:00,29.7,26.9,29.40,SSW,210,10.2,19.6,89,0.00,CLR,,0.00,WeatherDisplay:10.37,2013-02-11 10:52:00,
2013-02-11 04:53:00,29.7,26.9,29.40,WSW,256,12.7,19.6,89,0.00,CLR,,0.00,WeatherDisplay:10.37,2013-02-11 10:53:00,
2013-02-11 04:56:00,29.6,26.8,29.39,West,272,12.4,19.6,89,0.00,CLR,,0.00,WeatherDisplay:10.37,2013-02-11 10:56:00,
2013-02-11 04:57:00,29.7,26.9,29.40,WSW,257,11.1,19.6,89,0.00,CLR,,0.00,WeatherDisplay:10.37,2013-02-11 10:57:00,
2013-02-11 04:58:00,29.7,26.9,29.40,WSW,247,13.2,19.6,89,0.00,CLR,,0.00,WeatherDisplay:10.37,2013-02-11 10:58:00,
2013-02-11 05:01:00,29.6,26.8,29.40,WSW,248,10.4,20.7,89,0.00,CLR,,0.00,WeatherDisplay:10.37,2013-02-11 11:01:00,
2013-02-11 05:02:00,29.6,26.8,29.40,West,264,11.4,20.7,89,0.00,CLR,,0.00,WeatherDisplay:10.37,2013-02-11 11:02:00,
2013-02-11 05:04:00,29.7,26.9,29.41,WNW,284,13.0,18.4,89,0.00,CLR,,0.00,WeatherDisplay:10.37,2013-02-11 11:04:00,
2013-02-11 05:06:00,29.7,27.1,29.41,SW,215,9.3,17.3,90,0.00,CLR,,0.00,WeatherDisplay:10.37,2013-02-11 11:06:00,
2013-02-11 05:07:00,29.7,27.1,29.41,WSW,240,11.3,20.7,90,0.00,CLR,,0.00,WeatherDisplay:10.37,2013-02-11 11:07:00,
2013-02-11 05:09:00,29.6,27.3,29.41,WSW,256,11.3,20.7,91,0.00,CLR,,0.00,WeatherDisplay:10.37,2013-02-11 11:09:00,
2013-02-11 05:11:00,29.5,27.5,29.41,SW,229,8.5,15.0,92,0.00,CLR,,0.00,WeatherDisplay:10.37,2013-02-11 11:11:00,
2013-02-11 05:12:00,29.5,27.5,29.41,WNW,287,8.2,15.0,92,0.00,CLR,,0.00,WeatherDisplay:10.37,2013-02-11 11:12:00,
2013-02-11 05:14:00,29.3,27.5,29.41,West,260,10.8,16.1,93,0.00,CLR,,0.00,WeatherDisplay:10.37,2013-02-11 11:14:00,
2013-02-11 05:17:00,29.3,27.8,29.41,WSW,248,10.1,21.9,94,0.00,CLR,,0.00,WeatherDisplay:10.37,2013-02-11 11:17:00,
2013-02-11 05:19:00,29.2,27.9,29.41,WSW,256,10.7,18.8,95,0.00,CLR,,0.00,WeatherDisplay:10.37,2013-02-11 11:19:00,
2013-02-11 05:22:00,29.1,27.8,29.41,WSW,244,10.1,21.9,95,0.00,CLR,,0.00,WeatherDisplay:10.37,2013-02-11 11:22:00,
2013-02-11 05:24:00,29.1,27.8,29.41,WSW,246,9.3,15.0,95,0.00,CLR,,0.00,WeatherDisplay:10.37,2013-02-11 11:24:00,
2013-02-11 05:27:00,29.0,27.7,29.41,West,267,8.5,15.0,95,0.00,CLR,,0.00,WeatherDisplay:10.37,2013-02-11 11:27:00,
2013-02-11 05:28:00,29.0,27.7,29.41,West,281,9.8,15.0,95,0.00,CLR,,0.00,WeatherDisplay:10.37,2013-02-11 11:28:00,
2013-02-11 05:29:00,29.1,27.8,29.41,West,277,7.6,12.7,95,0.00,CLR,,0.00,WeatherDisplay:10.37,2013-02-11 11:29:00,
2013-02-11 05:32:00,29.0,27.7,29.42,West,274,8.0,12.7,95,0.00,CLR,,0.00,WeatherDisplay:10.37,2013-02-11 11:32:00,
2013-02-11 05:33:00,29.1,27.8,29.42,WSW,257,8.9,12.7,95,0.00,CLR,,0.00,WeatherDisplay:10.37,2013-02-11 11:33:00,
2013-02-11 05:34:00,29.0,27.7,29.42,South,189,9.0,15.0,95,0.00,CLR,,0.00,WeatherDisplay:10.37,2013-02-11 11:34:00,
2013-02-11 05:37:00,29.1,27.8,29.42,WSW,241,11.0,16.7,95,0.00,CLR,,0.00,WeatherDisplay:10.37,2013-02-11 11:37:00,
2013-02-11 05:38:00,29.0,27.7,29.42,SW,227,11.5,16.1,95,0.00,CLR,,0.00,WeatherDisplay:10.37,2013-02-11 11:38:00,
2013-02-11 05:39:00,28.9,27.6,29.42,West,271,11.0,18.4,95,0.00,CLR,,0.00,WeatherDisplay:10.37,2013-02-11 11:39:00,
2013-02-11 05:42:00,29.0,27.5,29.42,WNW,288,9.5,17.3,94,0.00,CLR,,0.00,WeatherDisplay:10.37,2013-02-11 11:42:00,
2013-02-11 05:43:00,29.1,27.6,29.42,WSW,256,8.9,17.3,94,0.00,CLR,,0.00,WeatherDisplay:10.37,2013-02-11 11:43:00,
2013-02-11 05:44:00,29.1,27.6,29.42,West,264,7.9,16.1,94,0.00,CLR,,0.00,WeatherDisplay:10.37,2013-02-11 11:44:00,
2013-02-11 05:48:00,29.1,27.6,29.42,WSW,250,10.7,16.1,94,0.00,CLR,,0.00,WeatherDisplay:10.37,2013-02-11 11:48:00,
2013-02-11 05:50:00,29.1,27.3,29.42,WSW,257,11.3,20.7,93,0.00,CLR,,0.00,WeatherDisplay:10.37,2013-02-11 11:50:00,
2013-02-11 05:53:00,29.2,27.2,29.42,SW,236,12.7,19.6,92,0.00,CLR,,0.00,WeatherDisplay:10.37,2013-02-11 11:53:00,
2013-02-11 05:55:00,29.2,27.2,29.42,WSW,258,8.8,19.6,92,0.00,CLR,,0.00,WeatherDisplay:10.37,2013-02-11 11:55:00,
2013-02-11 05:58:00,29.2,26.9,29.43,WSW,250,12.5,21.9,91,0.00,CLR,,0.00,WeatherDisplay:10.37,2013-02-11 11:58:00,
2013-02-11 05:59:00,29.3,27.0,29.43,West,264,10.8,21.9,91,0.00,CLR,,0.00,WeatherDisplay:10.37,2013-02-11 11:59:00,
2013-02-11 06:00:00,29.2,26.9,29.42,SW,236,11.2,17.3,91,0.00,CLR,,0.00,WeatherDisplay:10.37,2013-02-11 12:00:00,
2013-02-11 06:03:00,29.2,26.9,29.43,West,260,9.9,15.0,91,0.00,CLR,,0.00,WeatherDisplay:10.37,2013-02-11 12:03:00,
2013-02-11 06:04:00,29.3,27.0,29.43,West,264,11.7,19.6,91,0.00,CLR,,0.00,WeatherDisplay:10.37,2013-02-11 12:04:00,
2013-02-11 06:05:00,29.3,27.0,29.43,West,264,9.3,16.1,91,0.00,CLR,,0.00,WeatherDisplay:10.37,2013-02-11 12:05:00,
2013-02-11 06:08:00,29.3,27.0,29.43,WSW,244,12.1,19.6,91,0.00,CLR,,0.00,WeatherDisplay:10.37,2013-02-11 12:08:00,
2013-02-11 06:09:00,29.2,26.9,29.43,WSW,250,9.6,16.1,91,0.00,CLR,,0.00,WeatherDisplay:10.37,2013-02-11 12:09:00,
2013-02-11 06:10:00,29.3,27.0,29.43,WSW,253,11.9,18.4,91,0.00,CLR,,0.00,WeatherDisplay:10.37,2013-02-11 12:10:00,
2013-02-11 06:13:00,29.2,26.6,29.43,West,261,12.2,18.4,90,0.00,CLR,,0.00,WeatherDisplay:10.37,2013-02-11 12:13:00,
2013-02-11 06:14:00,29.3,26.7,29.43,West,265,12.9,21.9,90,0.00,CLR,,0.00,WeatherDisplay:10.37,2013-02-11 12:14:00,
2013-02-11 06:15:00,29.3,26.7,29.43,WSW,258,9.8,16.1,90,0.00,CLR,,0.00,WeatherDisplay:10.37,2013-02-11 12:15:00,
2013-02-11 06:18:00,29.3,26.7,29.43,SW,216,11.4,17.3,90,0.00,CLR,,0.00,WeatherDisplay:10.37,2013-02-11 12:18:00,
2013-02-11 06:19:00,29.4,26.8,29.44,West,280,8.0,18.4,90,0.00,CLR,,0.00,WeatherDisplay:10.37,2013-02-11 12:19:00,
2013-02-11 06:21:00,29.3,26.7,29.44,WSW,240,10.9,23.0,90,0.00,CLR,,0.00,WeatherDisplay:10.37,2013-02-11 12:21:00,
2013-02-11 06:23:00,29.3,26.7,29.44,WSW,257,12.1,25.2,90,0.00,CLR,,0.00,WeatherDisplay:10.37,2013-02-11 12:23:00,
2013-02-11 06:24:00,29.2,26.6,29.44,WSW,251,12.8,25.3,90,0.00,CLR,,0.00,WeatherDisplay:10.37,2013-02-11 12:24:00,
2013-02-11 06:25:00,29.3,26.7,29.44,WSW,243,8.7,25.3,90,0.00,CLR,,0.00,WeatherDisplay:10.37,2013-02-11 12:25:00,
2013-02-11 06:26:00,29.3,26.7,29.44,West,272,14.3,18.5,90,0.00,CLR,,0.00,WeatherDisplay:10.37,2013-02-11 12:26:00,
2013-02-11 06:28:00,29.3,26.5,29.44,SW,223,9.7,19.0,89,0.00,CLR,,0.00,WeatherDisplay:10.37,2013-02-11 12:28:00,
2013-02-11 06:29:00,29.4,26.6,29.44,West,268,10.5,17.3,89,0.00,CLR,,0.00,WeatherDisplay:10.37,2013-02-11 12:29:00,
2013-02-11 06:30:00,29.4,26.6,29.44,West,267,8.9,17.3,89,0.00,CLR,,0.00,WeatherDisplay:10.37,2013-02-11 12:30:00,
2013-02-11 06:31:00,29.4,26.6,29.44,WSW,258,10.1,19.6,89,0.00,CLR,,0.00,WeatherDisplay:10.37,2013-02-11 12:31:00,
2013-02-11 06:33:00,29.3,26.5,29.44,West,260,10.9,19.6,89,0.00,CLR,,0.00,WeatherDisplay:10.37,2013-02-11 12:33:00,
2013-02-11 06:34:00,29.4,26.6,29.45,NW,308,8.0,17.3,89,0.00,CLR,,0.00,WeatherDisplay:10.37,2013-02-11 12:34:00,
2013-02-11 06:35:00,29.3,26.5,29.45,WNW,299,8.4,17.3,89,0.00,CLR,,0.00,WeatherDisplay:10.37,2013-02-11 12:35:00,
2013-02-11 06:36:00,29.3,26.5,29.45,SSW,203,12.2,18.4,89,0.00,CLR,,0.00,WeatherDisplay:10.37,2013-02-11 12:36:00,
2013-02-11 06:38:00,29.3,26.5,29.45,SW,226,10.9,17.3,89,0.00,CLR,,0.00,WeatherDisplay:10.37,2013-02-11 12:38:00,
2013-02-11 06:39:00,29.3,26.5,29.45,SW,234,11.7,19.6,89,0.00,CLR,,0.00,WeatherDisplay:10.37,2013-02-11 12:39:00,
2013-02-11 06:40:00,29.3,26.5,29.45,WNW,282,12.4,19.6,89,0.00,CLR,,0.00,WeatherDisplay:10.37,2013-02-11 12:40:00,
2013-02-11 06:41:00,29.3,26.5,29.45,West,264,7.4,15.0,89,0.00,CLR,,0.00,WeatherDisplay:10.37,2013-02-11 12:41:00,
2013-02-11 06:43:00,29.4,26.8,29.45,WSW,257,9.8,18.4,90,0.00,CLR,,0.00,WeatherDisplay:10.37,2013-02-11 12:43:00,
2013-02-11 06:44:00,29.3,26.7,29.45,West,274,8.7,23.0,90,0.00,CLR,,0.00,WeatherDisplay:10.37,2013-02-11 12:44:00,
2013-02-11 06:45:00,29.3,26.7,29.45,WSW,247,11.0,23.0,90,0.00,CLR,,0.00,WeatherDisplay:10.37,2013-02-11 12:45:00,
2013-02-11 06:46:00,29.4,26.8,29.45,WSW,256,8.2,15.9,90,0.00,CLR,,0.00,WeatherDisplay:10.37,2013-02-11 12:46:00,
2013-02-11 06:48:00,29.3,26.7,29.45,SW,236,11.9,17.9,90,0.00,CLR,,0.00,WeatherDisplay:10.37,2013-02-11 12:48:00,
2013-02-11 06:50:00,29.3,26.7,29.45,WSW,257,13.3,19.6,90,0.00,CLR,,0.00,WeatherDisplay:10.37,2013-02-11 12:50:00,
2013-02-11 06:52:00,29.3,26.5,29.45,West,268,14.4,23.0,89,0.00,CLR,,0.00,WeatherDisplay:10.37,2013-02-11 12:52:00,
2013-02-11 06:53:00,29.3,26.5,29.45,WSW,251,11.6,25.3,89,0.00,CLR,,0.00,WeatherDisplay:10.37,2013-02-11 12:53:00,
2013-02-11 06:55:00,29.3,26.5,29.45,WSW,237,11.4,18.4,89,0.00,CLR,,0.00,WeatherDisplay:10.37,2013-02-11 12:55:00,
2013-02-11 06:56:00,29.3,26.5,29.46,West,268,10.3,18.4,89,0.00,CLR,,0.00,WeatherDisplay:10.37,2013-02-11 12:56:00,
2013-02-11 06:57:00,29.2,26.4,29.46,WSW,248,11.7,16.1,89,0.00,CLR,,0.00,WeatherDisplay:10.37,2013-02-11 12:57:00,
2013-02-11 06:59:00,29.4,26.6,29.46,West,264,11.0,20.7,89,0.00,CLR,,0.00,WeatherDisplay:10.37,2013-02-11 12:59:00,
2013-02-11 07:00:00,29.3,26.5,29.46,West,272,10.1,16.1,89,0.00,CLR,,0.00,WeatherDisplay:10.37,2013-02-11 13:00:00,
2013-02-11 07:01:00,29.4,26.6,29.46,SW,219,13.7,24.2,89,0.00,CLR,,0.00,WeatherDisplay:10.37,2013-02-11 13:01:00,
2013-02-11 07:02:00,29.3,26.5,29.46,SW,226,11.4,18.4,89,0.00,CLR,,0.00,WeatherDisplay:10.37,2013-02-11 13:02:00,
2013-02-11 07:04:00,29.3,26.5,29.46,West,264,12.0,15.0,89,0.00,CLR,,0.00,WeatherDisplay:10.37,2013-02-11 13:04:00,
2013-02-11 07:05:00,29.3,26.5,29.46,WSW,253,13.4,20.7,89,0.00,CLR,,0.00,WeatherDisplay:10.37,2013-02-11 13:05:00,
2013-02-11 07:06:00,29.3,26.5,29.46,West,267,16.3,27.6,89,0.00,CLR,,0.00,WeatherDisplay:10.37,2013-02-11 13:06:00,
2013-02-11 07:07:00,29.4,26.6,29.46,West,264,9.0,17.3,89,0.00,CLR,,0.00,WeatherDisplay:10.37,2013-02-11 13:07:00,
2013-02-11 07:09:00,29.4,26.6,29.46,WSW,239,9.9,16.1,89,0.00,CLR,,0.00,WeatherDisplay:10.37,2013-02-11 13:09:00,
2013-02-11 07:10:00,29.5,26.7,29.46,West,274,11.8,18.4,89,0.00,CLR,,0.00,WeatherDisplay:10.37,2013-02-11 13:10:00,
2013-02-11 07:11:00,29.5,26.7,29.47,West,264,13.4,20.7,89,0.00,CLR,,0.00,WeatherDisplay:10.37,2013-02-11 13:11:00,
2013-02-11 07:12:00,29.4,26.6,29.47,WSW,251,11.0,19.6,89,0.00,CLR,,0.00,WeatherDisplay:10.37,2013-02-11 13:12:00,
2013-02-11 07:14:00,29.3,26.5,29.47,WSW,258,11.2,17.3,89,0.00,CLR,,0.00,WeatherDisplay:10.37,2013-02-11 13:14:00,
2013-02-11 07:15:00,29.4,26.6,29.47,West,271,8.7,13.8,89,0.00,CLR,,0.00,WeatherDisplay:10.37,2013-02-11 13:15:00,
2013-02-11 07:16:00,29.4,26.6,29.47,West,263,11.3,18.6,89,0.00,CLR,,0.00,WeatherDisplay:10.37,2013-02-11 13:16:00,
2013-02-11 07:18:00,29.4,26.6,29.47,West,271,14.4,19.6,89,0.00,CLR,,0.00,WeatherDisplay:10.37,2013-02-11 13:18:00,
2013-02-11 07:19:00,29.4,26.6,29.47,WSW,246,9.2,16.2,89,0.00,CLR,,0.00,WeatherDisplay:10.37,2013-02-11 13:19:00,
2013-02-11 07:20:00,29.5,26.7,29.47,WSW,258,11.4,23.0,89,0.00,CLR,,0.00,WeatherDisplay:10.37,2013-02-11 13:20:00,
2013-02-11 07:21:00,29.5,26.7,29.47,WSW,251,11.9,18.4,89,0.00,CLR,,0.00,WeatherDisplay:10.37,2013-02-11 13:21:00,
2013-02-11 07:23:00,29.4,26.6,29.47,West,263,11.0,19.6,89,0.00,CLR,,0.00,WeatherDisplay:10.37,2013-02-11 13:23:00,
2013-02-11 07:25:00,29.4,26.3,29.47,West,260,11.3,19.6,88,0.00,CLR,,0.00,WeatherDisplay:10.37,2013-02-11 13:25:00,
2013-02-11 07:26:00,29.4,26.3,29.47,West,281,14.6,23.0,88,0.00,CLR,,0.00,WeatherDisplay:10.37,2013-02-11 13:26:00,
2013-02-11 07:28:00,29.5,26.4,29.47,West,264,8.9,19.6,88,0.00,CLR,,0.00,WeatherDisplay:10.37,2013-02-11 13:28:00,
2013-02-11 07:30:00,29.6,26.5,29.47,West,277,11.0,18.4,88,0.00,CLR,,0.00,WeatherDisplay:10.37,2013-02-11 13:30:00,
2013-02-11 07:32:00,29.5,26.7,29.47,West,275,10.5,17.3,89,0.00,CLR,,0.00,WeatherDisplay:10.37,2013-02-11 13:32:00,
2013-02-11 07:33:00,29.5,26.7,29.47,West,261,9.5,13.8,89,0.00,CLR,,0.00,WeatherDisplay:10.37,2013-02-11 13:33:00,
2013-02-11 07:35:00,29.5,26.7,29.47,West,263,9.9,15.0,89,0.00,CLR,,0.00,WeatherDisplay:10.37,2013-02-11 13:35:00,
2013-02-11 07:37:00,29.5,26.7,29.47,West,261,12.1,19.6,89,0.00,CLR,,0.00,WeatherDisplay:10.37,2013-02-11 13:37:00,
2013-02-11 07:38:00,29.5,26.7,29.47,WSW,243,14.3,27.6,89,0.00,CLR,,0.00,WeatherDisplay:10.37,2013-02-11 13:38:00,
2013-02-11 07:40:00,29.4,26.6,29.47,WSW,257,13.2,18.4,89,0.00,CLR,,0.00,WeatherDisplay:10.37,2013-02-11 13:40:00,
2013-02-11 07:42:00,29.5,26.7,29.47,WSW,258,10.1,16.1,89,0.00,CLR,,0.00,WeatherDisplay:10.37,2013-02-11 13:42:00,
2013-02-11 07:43:00,29.4,26.6,29.47,WNW,288,10.5,18.4,89,0.00,CLR,,0.00,WeatherDisplay:10.37,2013-02-11 13:43:00,
2013-02-11 07:46:00,29.4,26.6,29.47,WSW,246,11.9,19.6,89,0.00,CLR,,0.00,WeatherDisplay:10.37,2013-02-11 13:46:00,
2013-02-11 07:47:00,29.4,26.6,29.47,West,277,11.3,18.4,89,0.00,CLR,,0.00,WeatherDisplay:10.37,2013-02-11 13:47:00,
2013-02-11 07:48:00,29.4,26.6,29.48,West,261,13.2,19.6,89,0.00,CLR,,0.00,WeatherDisplay:10.37,2013-02-11 13:48:00,
2013-02-11 07:51:00,29.4,26.6,29.48,WNW,302,7.6,16.1,89,0.00,CLR,,0.00,WeatherDisplay:10.37,2013-02-11 13:51:00,
2013-02-11 07:52:00,29.4,26.6,29.48,West,270,9.3,15.0,89,0.00,CLR,,0.00,WeatherDisplay:10.37,2013-02-11 13:52:00,
2013-02-11 07:54:00,29.4,26.6,29.48,West,264,10.3,17.1,89,0.00,CLR,,0.00,WeatherDisplay:10.37,2013-02-11 13:54:00,
2013-02-11 07:56:00,29.4,26.8,29.49,West,280,13.2,17.3,90,0.00,CLR,,0.00,WeatherDisplay:10.37,2013-02-11 13:56:00,
2013-02-11 07:57:00,29.4,26.8,29.48,WSW,248,10.7,18.4,90,0.00,CLR,,0.00,WeatherDisplay:10.37,2013-02-11 13:57:00,
2013-02-11 07:59:00,29.4,26.8,29.49,West,263,12.5,19.6,90,0.00,CLR,,0.00,WeatherDisplay:10.37,2013-02-11 13:59:00,
2013-02-11 08:01:00,29.4,26.8,29.49,WNW,284,7.2,16.1,90,0.00,CLR,,0.00,WeatherDisplay:10.37,2013-02-11 14:01:00,
2013-02-11 08:02:00,29.4,26.8,29.49,WNW,292,10.1,15.0,90,0.00,CLR,,0.00,WeatherDisplay:10.37,2013-02-11 14:02:00,
2013-02-11 08:05:00,29.4,26.8,29.49,NW,320,11.3,23.0,90,0.00,CLR,,0.00,WeatherDisplay:10.37,2013-02-11 14:05:00,
2013-02-11 08:06:00,29.4,26.8,29.49,WSW,256,11.5,17.3,90,0.00,CLR,,0.00,WeatherDisplay:10.37,2013-02-11 14:06:00,
2013-02-11 08:07:00,29.3,26.7,29.49,WSW,243,13.0,23.0,90,0.00,CLR,,0.00,WeatherDisplay:10.37,2013-02-11 14:07:00,
2013-02-11 08:10:00,29.4,27.1,29.50,West,265,12.1,15.9,91,0.00,CLR,,0.00,WeatherDisplay:10.37,2013-02-11 14:10:00,
2013-02-11 08:11:00,29.3,27.0,29.50,West,271,9.3,12.7,91,0.00,CLR,,0.00,WeatherDisplay:10.37,2013-02-11 14:11:00,
2013-02-11 08:12:00,29.4,27.1,29.50,West,261,8.1,12.7,91,0.00,CLR,,0.00,WeatherDisplay:10.37,2013-02-11 14:12:00,
2013-02-11 08:15:00,29.4,27.1,29.50,West,270,7.4,17.3,91,0.00,CLR,,0.00,WeatherDisplay:10.37,2013-02-11 14:15:00,
2013-02-11 08:17:00,29.4,27.1,29.50,SW,220,11.9,17.3,91,0.00,CLR,,0.00,WeatherDisplay:10.37,2013-02-11 14:17:00,
2013-02-11 08:20:00,29.4,27.1,29.50,WSW,256,7.5,17.3,91,0.00,CLR,,0.00,WeatherDisplay:10.37,2013-02-11 14:20:00,
2013-02-11 08:22:00,29.5,27.2,29.50,WSW,247,8.7,18.4,91,0.00,CLR,,0.00,WeatherDisplay:10.37,2013-02-11 14:22:00,
2013-02-11 08:23:00,29.5,27.2,29.50,West,267,7.7,16.1,91,0.00,CLR,,0.00,WeatherDisplay:10.37,2013-02-11 14:23:00,
2013-02-11 08:25:00,29.6,27.3,29.50,SW,216,9.4,17.4,91,0.00,CLR,,0.00,WeatherDisplay:10.37,2013-02-11 14:25:00,
2013-02-11 08:27:00,29.5,27.2,29.50,WSW,244,9.5,18.3,91,0.00,CLR,,0.00,WeatherDisplay:10.37,2013-02-11 14:27:00,
2013-02-11 08:28:00,29.5,27.2,29.50,West,280,12.9,18.4,91,0.00,CLR,,0.00,WeatherDisplay:10.37,2013-02-11 14:28:00,
2013-02-11 08:30:00,29.5,27.2,29.50,SW,233,11.6,18.4,91,0.00,CLR,,0.00,WeatherDisplay:10.37,2013-02-11 14:30:00,
2013-02-11 08:32:00,29.6,27.3,29.50,WSW,239,10.3,16.1,91,0.00,CLR,,0.00,WeatherDisplay:10.37,2013-02-11 14:32:00,
2013-02-11 08:33:00,29.6,27.3,29.50,WSW,258,11.2,15.0,91,0.00,CLR,,0.00,WeatherDisplay:10.37,2013-02-11 14:33:00,
2013-02-11 08:35:00,29.6,27.3,29.51,West,264,11.3,19.6,91,0.00,CLR,,0.00,WeatherDisplay:10.37,2013-02-11 14:35:00,
2013-02-11 08:37:00,29.5,27.5,29.50,NW,313,12.0,20.7,92,0.00,CLR,,0.00,WeatherDisplay:10.37,2013-02-11 14:37:00,
2013-02-11 08:38:00,29.6,27.6,29.50,West,280,12.3,18.4,92,0.00,CLR,,0.00,WeatherDisplay:10.37,2013-02-11 14:38:00,
2013-02-11 08:40:00,29.5,27.5,29.51,WNW,285,11.6,23.0,92,0.00,CLR,,0.00,WeatherDisplay:10.37,2013-02-11 14:40:00,
2013-02-11 08:42:00,29.6,27.6,29.51,West,260,11.1,21.9,92,0.00,CLR,,0.00,WeatherDisplay:10.37,2013-02-11 14:42:00,
2013-02-11 08:43:00,29.6,27.6,29.51,WSW,246,10.4,15.0,92,0.00,CLR,,0.00,WeatherDisplay:10.37,2013-02-11 14:43:00,
2013-02-11 08:45:00,29.7,27.7,29.51,West,270,10.1,17.3,92,0.00,CLR,,0.00,WeatherDisplay:10.37,2013-02-11 14:45:00,
2013-02-11 08:47:00,29.6,27.6,29.51,SW,227,10.0,13.8,92,0.00,CLR,,0.00,WeatherDisplay:10.37,2013-02-11 14:47:00,
2013-02-11 08:48:00,29.7,27.7,29.51,West,274,10.4,16.8,92,0.00,CLR,,0.00,WeatherDisplay:10.37,2013-02-11 14:48:00,
2013-02-11 08:50:00,29.7,27.7,29.51,SW,220,12.7,16.1,92,0.00,CLR,,0.00,WeatherDisplay:10.37,2013-02-11 14:50:00,
2013-02-11 08:52:00,29.7,27.4,29.51,West,271,8.2,19.6,91,0.00,CLR,,0.00,WeatherDisplay:10.37,2013-02-11 14:52:00,
2013-02-11 08:53:00,29.7,27.4,29.51,WSW,248,9.9,15.0,91,0.00,CLR,,0.00,WeatherDisplay:10.37,2013-02-11 14:53:00,
2013-02-11 08:55:00,29.7,27.4,29.51,West,274,7.3,13.8,91,0.00,CLR,,0.00,WeatherDisplay:10.37,2013-02-11 14:55:00,
2013-02-11 08:57:00,29.8,27.5,29.51,SW,229,9.4,17.0,91,0.00,CLR,,0.00,WeatherDisplay:10.37,2013-02-11 14:57:00,
2013-02-11 08:59:00,29.8,27.5,29.52,West,278,7.4,17.3,91,0.00,CLR,,0.00,WeatherDisplay:10.37,2013-02-11 14:59:00,
2013-02-11 09:00:00,29.8,27.5,29.52,WNW,289,10.2,13.8,91,0.00,CLR,,0.00,WeatherDisplay:10.37,2013-02-11 15:00:00,
2013-02-11 09:02:00,29.9,27.6,29.52,West,270,10.4,19.6,91,0.00,CLR,,0.00,WeatherDisplay:10.37,2013-02-11 15:02:00,
2013-02-11 09:03:00,29.8,27.5,29.53,West,280,9.9,19.6,91,0.00,CLR,,0.00,WeatherDisplay:10.37,2013-02-11 15:03:00,
2013-02-11 09:04:00,29.9,27.6,29.53,SSW,210,10.7,20.5,91,0.00,CLR,,0.00,WeatherDisplay:10.37,2013-02-11 15:04:00,
2013-02-11 09:06:00,29.9,27.6,29.53,West,270,10.9,20.7,91,0.00,CLR,,0.00,WeatherDisplay:10.37,2013-02-11 15:06:00,
2013-02-11 09:07:00,29.9,27.3,29.53,WSW,250,13.7,20.7,90,0.00,CLR,,0.00,WeatherDisplay:10.37,2013-02-11 15:07:00,
2013-02-11 09:08:00,29.9,27.3,29.53,West,267,11.9,20.7,90,0.00,CLR,,0.00,WeatherDisplay:10.37,2013-02-11 15:08:00,
2013-02-11 09:09:00,29.9,27.3,29.53,WSW,239,7.0,10.4,90,0.00,CLR,,0.00,WeatherDisplay:10.37,2013-02-11 15:09:00,
2013-02-11 09:11:00,30.0,27.4,29.53,WNW,287,8.2,16.1,90,0.00,CLR,,0.00,WeatherDisplay:10.37,2013-02-11 15:11:00,
2013-02-11 09:12:00,29.9,27.3,29.53,West,272,11.2,19.6,90,0.00,CLR,,0.00,WeatherDisplay:10.37,2013-02-11 15:12:00,
2013-02-11 09:13:00,30.0,27.4,29.53,WNW,285,8.8,19.6,90,0.00,CLR,,0.00,WeatherDisplay:10.37,2013-02-11 15:13:00,
2013-02-11 09:14:00,30.1,27.5,29.54,WNW,287,10.0,18.4,90,0.00,CLR,,0.00,WeatherDisplay:10.37,2013-02-11 15:14:00,
2013-02-11 09:16:00,30.0,27.4,29.53,West,272,7.1,18.4,90,0.00,CLR,,0.00,WeatherDisplay:10.37,2013-02-11 15:16:00,
2013-02-11 09:18:00,30.1,27.5,29.54,West,278,11.1,18.4,90,0.00,CLR,,0.00,WeatherDisplay:10.37,2013-02-11 15:18:00,
2013-02-11 09:19:00,30.0,27.4,29.54,West,260,10.0,16.1,90,0.00,CLR,,0.00,WeatherDisplay:10.37,2013-02-11 15:19:00,
2013-02-11 09:21:00,30.1,27.5,29.54,West,268,7.8,16.1,90,0.00,CLR,,0.00,WeatherDisplay:10.37,2013-02-11 15:21:00,
2013-02-11 09:23:00,30.1,27.5,29.55,WSW,257,10.2,13.8,90,0.00,CLR,,0.00,WeatherDisplay:10.37,2013-02-11 15:23:00,
2013-02-11 09:25:00,30.1,27.5,29.54,West,277,6.5,11.5,90,0.00,CLR,,0.00,WeatherDisplay:10.37,2013-02-11 15:25:00,
2013-02-11 09:26:00,30.2,27.6,29.54,West,270,10.6,20.7,90,0.00,CLR,,0.00,WeatherDisplay:10.37,2013-02-11 15:26:00,
2013-02-11 09:28:00,30.2,27.6,29.55,WNW,284,7.5,21.9,90,0.00,CLR,,0.00,WeatherDisplay:10.37,2013-02-11 15:28:00,
2013-02-11 09:30:00,30.2,27.6,29.55,West,275,10.2,18.4,90,0.00,CLR,,0.00,WeatherDisplay:10.37,2013-02-11 15:30:00,
2013-02-11 09:31:00,30.2,27.6,29.55,NW,318,7.2,10.4,90,0.00,CLR,,0.00,WeatherDisplay:10.37,2013-02-11 15:31:00,
2013-02-11 09:33:00,30.2,27.6,29.55,ESE,109,9.5,16.1,90,0.00,CLR,,0.00,WeatherDisplay:10.37,2013-02-11 15:33:00,
2013-02-11 09:35:00,30.2,27.6,29.55,WSW,243,8.5,14.0,90,0.00,CLR,,0.00,WeatherDisplay:10.37,2013-02-11 15:35:00,
2013-02-11 09:36:00,30.3,27.7,29.55,WNW,292,7.2,13.8,90,0.00,CLR,,0.00,WeatherDisplay:10.37,2013-02-11 15:36:00,
2013-02-11 09:38:00,30.3,27.7,29.55,West,268,9.7,18.4,90,0.00,CLR,,0.00,WeatherDisplay:10.37,2013-02-11 15:38:00,
2013-02-11 09:39:00,30.3,27.7,29.55,WNW,292,7.8,18.4,90,0.00,CLR,,0.00,WeatherDisplay:10.37,2013-02-11 15:39:00,
2013-02-11 09:40:00,30.3,27.7,29.56,West,260,8.2,10.4,90,0.00,CLR,,0.00,WeatherDisplay:10.37,2013-02-11 15:40:00,
2013-02-11 09:42:00,30.4,27.8,29.56,West,265,8.1,18.4,90,0.00,CLR,,0.00,WeatherDisplay:10.37,2013-02-11 15:42:00,
2013-02-11 09:43:00,30.5,27.9,29.56,West,275,6.6,10.1,90,0.00,CLR,,0.00,WeatherDisplay:10.37,2013-02-11 15:43:00,
2013-02-11 09:44:00,30.5,27.9,29.56,West,278,7.4,9.2,90,0.00,CLR,,0.00,WeatherDisplay:10.37,2013-02-11 15:44:00,
2013-02-11 09:45:00,30.5,27.9,29.56,WNW,282,11.8,23.0,90,0.00,CLR,,0.00,WeatherDisplay:10.37,2013-02-11 15:45:00,
2013-02-11 09:47:00,30.5,27.9,29.56,WSW,256,7.0,16.1,90,0.00,CLR,,0.00,WeatherDisplay:10.37,2013-02-11 15:47:00,
2013-02-11 09:48:00,30.5,27.9,29.56,WNW,285,10.4,18.4,90,0.00,CLR,,0.00,WeatherDisplay:10.37,2013-02-11 15:48:00,
2013-02-11 09:49:00,30.5,27.9,29.56,WNW,288,10.1,15.0,90,0.00,CLR,,0.00,WeatherDisplay:10.37,2013-02-11 15:49:00,
2013-02-11 09:50:00,30.5,27.9,29.56,WSW,257,9.9,15.0,90,0.00,CLR,,0.00,WeatherDisplay:10.37,2013-02-11 15:50:00,
2013-02-11 09:52:00,30.5,27.9,29.57,WNW,282,6.7,13.8,90,0.00,CLR,,0.00,WeatherDisplay:10.37,2013-02-11 15:52:00,
2013-02-11 09:53:00,30.6,28.0,29.56,West,263,10.0,17.6,90,0.00,CLR,,0.00,WeatherDisplay:10.37,2013-02-11 15:53:00,
2013-02-11 09:54:00,30.6,28.0,29.57,West,263,11.8,19.6,90,0.00,CLR,,0.00,WeatherDisplay:10.37,2013-02-11 15:54:00,
2013-02-11 09:55:00,30.6,28.0,29.57,West,264,7.3,11.5,90,0.00,CLR,,0.00,WeatherDisplay:10.37,2013-02-11 15:55:00,
2013-02-11 09:57:00,30.6,28.0,29.57,West,264,7.0,13.8,90,0.00,CLR,,0.00,WeatherDisplay:10.37,2013-02-11 15:57:00,
2013-02-11 09:58:00,30.6,28.0,29.58,West,274,9.0,12.7,90,0.00,CLR,,0.00,WeatherDisplay:10.37,2013-02-11 15:58:00,
2013-02-11 09:59:00,30.6,28.0,29.58,West,260,8.5,13.8,90,0.00,CLR,,0.00,WeatherDisplay:10.37,2013-02-11 15:59:00,
2013-02-11 10:00:00,30.6,28.0,29.58,WSW,251,8.4,11.5,90,0.00,CLR,,0.00,WeatherDisplay:10.37,2013-02-11 16:00:00,
2013-02-11 10:02:00,30.6,28.0,29.58,NW,318,10.2,18.4,90,0.00,CLR,,0.00,WeatherDisplay:10.37,2013-02-11 16:02:00,
2013-02-11 10:03:00,30.6,27.7,29.58,West,260,11.8,17.3,89,0.00,CLR,,0.00,WeatherDisplay:10.37,2013-02-11 16:03:00,
2013-02-11 10:04:00,30.6,27.7,29.58,WNW,294,11.7,20.7,89,0.00,CLR,,0.00,WeatherDisplay:10.37,2013-02-11 16:04:00,
2013-02-11 10:05:00,30.6,27.7,29.58,WNW,292,11.0,18.4,89,0.00,CLR,,0.00,WeatherDisplay:10.37,2013-02-11 16:05:00,
2013-02-11 10:07:00,30.6,27.7,29.58,WSW,246,10.1,20.7,89,0.00,CLR,,0.00,WeatherDisplay:10.37,2013-02-11 16:07:00,
2013-02-11 10:08:00,30.6,27.7,29.58,West,272,8.9,15.6,89,0.00,CLR,,0.00,WeatherDisplay:10.37,2013-02-11 16:08:00,
2013-02-11 10:09:00,30.5,27.6,29.58,West,277,9.6,16.1,89,0.00,CLR,,0.00,WeatherDisplay:10.37,2013-02-11 16:09:00,
2013-02-11 10:11:00,30.6,27.7,29.59,West,278,9.5,15.5,89,0.00,CLR,,0.00,WeatherDisplay:10.37,2013-02-11 16:11:00,
2013-02-11 10:12:00,30.6,27.7,29.59,West,265,8.9,14.6,89,0.00,CLR,,0.00,WeatherDisplay:10.37,2013-02-11 16:12:00,
2013-02-11 10:14:00,30.6,27.7,29.59,West,270,8.7,15.0,89,0.00,CLR,,0.00,WeatherDisplay:10.37,2013-02-11 16:14:00,
2013-02-11 10:16:00,30.6,27.7,29.59,West,265,7.8,13.8,89,0.00,CLR,,0.00,WeatherDisplay:10.37,2013-02-11 16:16:00,
2013-02-11 10:17:00,30.5,27.6,29.59,WSW,257,8.7,12.7,89,0.00,CLR,,0.00,WeatherDisplay:10.37,2013-02-11 16:17:00,
2013-02-11 10:19:00,30.6,27.7,29.59,WNW,285,8.4,15.0,89,0.00,CLR,,0.00,WeatherDisplay:10.37,2013-02-11 16:19:00,
2013-02-11 10:21:00,30.5,27.6,29.60,West,264,9.5,14.7,89,0.00,CLR,,0.00,WeatherDisplay:10.37,2013-02-11 16:21:00,
2013-02-11 10:22:00,30.5,27.6,29.60,WNW,289,10.6,18.4,89,0.00,CLR,,0.00,WeatherDisplay:10.37,2013-02-11 16:22:00,
2013-02-11 10:24:00,30.5,27.6,29.60,WNW,287,8.8,16.1,89,0.00,CLR,,0.00,WeatherDisplay:10.37,2013-02-11 16:24:00,
2013-02-11 10:26:00,30.5,27.6,29.60,West,277,10.7,19.6,89,0.00,CLR,,0.00,WeatherDisplay:10.37,2013-02-11 16:26:00,
2013-02-11 10:28:00,30.5,27.6,29.60,West,280,11.2,16.1,89,0.00,CLR,,0.00,WeatherDisplay:10.37,2013-02-11 16:28:00,
2013-02-11 10:29:00,30.5,27.6,29.60,West,280,10.3,16.1,89,0.00,CLR,,0.00,WeatherDisplay:10.37,2013-02-11 16:29:00,
2013-02-11 10:31:00,30.4,27.5,29.60,West,274,10.5,17.3,89,0.00,CLR,,0.00,WeatherDisplay:10.37,2013-02-11 16:31:00,
2013-02-11 10:33:00,30.4,27.5,29.60,WSW,253,11.0,21.9,89,0.00,CLR,,0.00,WeatherDisplay:10.37,2013-02-11 16:33:00,
2013-02-11 10:34:00,30.4,27.5,29.60,SW,222,11.3,17.3,89,0.00,CLR,,0.00,WeatherDisplay:10.37,2013-02-11 16:34:00,
2013-02-11 10:35:00,30.4,27.5,29.60,West,268,10.4,16.1,89,0.00,CLR,,0.00,WeatherDisplay:10.37,2013-02-11 16:35:00,
2013-02-11 10:36:00,30.4,27.5,29.60,WNW,284,9.5,17.3,89,0.00,CLR,,0.00,WeatherDisplay:10.37,2013-02-11 16:36:00,
2013-02-11 10:38:00,30.4,27.5,29.60,WNW,289,9.5,12.7,89,0.00,CLR,,0.00,WeatherDisplay:10.37,2013-02-11 16:38:00,
2013-02-11 10:39:00,30.5,27.6,29.60,WNW,289,9.2,19.6,89,0.00,CLR,,0.00,WeatherDisplay:10.37,2013-02-11 16:39:00,
2013-02-11 10:40:00,30.5,27.6,29.60,West,274,10.9,19.6,89,0.00,CLR,,0.00,WeatherDisplay:10.37,2013-02-11 16:40:00,
2013-02-11 10:41:00,30.4,27.5,29.60,NW,319,8.4,12.7,89,0.00,CLR,,0.00,WeatherDisplay:10.37,2013-02-11 16:41:00,
2013-02-11 10:43:00,30.5,27.6,29.60,NW,318,10.8,18.4,89,0.00,CLR,,0.00,WeatherDisplay:10.37,2013-02-11 16:43:00,
2013-02-11 10:44:00,30.5,27.6,29.60,West,265,9.2,16.1,89,0.00,CLR,,0.00,WeatherDisplay:10.37,2013-02-11 16:44:00,
2013-02-11 10:45:00,30.5,27.6,29.61,NW,309,8.8,16.1,89,0.00,CLR,,0.00,WeatherDisplay:10.37,2013-02-11 16:45:00,
2013-02-11 10:47:00,30.5,27.6,29.61,WNW,294,7.5,14.0,89,0.00,CLR,,0.00,WeatherDisplay:10.37,2013-02-11 16:47:00,
2013-02-11 10:49:00,30.5,27.4,29.61,West,270,8.6,16.1,88,0.00,CLR,,0.00,WeatherDisplay:10.37,2013-02-11 16:49:00,
2013-02-11 10:50:00,30.5,27.4,29.61,WNW,299,8.6,10.6,88,0.00,CLR,,0.00,WeatherDisplay:10.37,2013-02-11 16:50:00,
2013-02-11 10:52:00,30.5,27.6,29.61,West,268,10.9,13.8,89,0.00,CLR,,0.00,WeatherDisplay:10.37,2013-02-11 16:52:00,
2013-02-11 10:54:00,30.5,27.4,29.61,WNW,284,7.4,12.7,88,0.00,CLR,,0.00,WeatherDisplay:10.37,2013-02-11 16:54:00,
2013-02-11 10:55:00,30.5,27.6,29.61,WNW,298,4.9,12.7,89,0.00,CLR,,0.00,WeatherDisplay:10.37,2013-02-11 16:55:00,
2013-02-11 10:57:00,30.5,27.4,29.61,West,281,11.1,18.4,88,0.00,CLR,,0.00,WeatherDisplay:10.37,2013-02-11 16:57:00,
2013-02-11 10:59:00,30.5,27.4,29.61,West,268,10.9,23.0,88,0.00,CLR,,0.00,WeatherDisplay:10.37,2013-02-11 16:59:00,
2013-02-11 11:00:00,30.5,27.4,29.61,WNW,296,13.3,23.0,88,0.00,CLR,,0.00,WeatherDisplay:10.37,2013-02-11 17:00:00,
2013-02-11 11:02:00,30.5,27.4,29.61,NW,304,9.4,16.1,88,0.00,CLR,,0.00,WeatherDisplay:10.37,2013-02-11 17:02:00,
2013-02-11 11:04:00,30.5,27.4,29.62,West,274,6.7,11.5,88,0.00,CLR,,0.00,WeatherDisplay:10.37,2013-02-11 17:04:00,
2013-02-11 11:05:00,30.6,27.5,29.62,NW,318,5.7,11.5,88,0.00,CLR,,0.00,WeatherDisplay:10.37,2013-02-11 17:05:00,
2013-02-11 11:07:00,30.5,27.4,29.62,NW,322,8.9,12.7,88,0.00,CLR,,0.00,WeatherDisplay:10.37,2013-02-11 17:07:00,
2013-02-11 11:09:00,30.6,27.5,29.62,West,264,4.5,9.2,88,0.00,CLR,,0.00,WeatherDisplay:10.37,2013-02-11 17:09:00,
2013-02-11 11:10:00,30.6,27.5,29.62,WSW,250,7.8,11.6,88,0.00,CLR,,0.00,WeatherDisplay:10.37,2013-02-11 17:10:00,
2013-02-11 11:12:00,30.6,27.5,29.62,WSW,248,7.4,12.7,88,0.00,CLR,,0.00,WeatherDisplay:10.37,2013-02-11 17:12:00,
2013-02-11 11:14:00,30.6,27.2,29.62,WSW,251,10.3,15.0,87,0.00,CLR,,0.00,WeatherDisplay:10.37,2013-02-11 17:14:00,
2013-02-11 11:15:00,30.6,27.2,29.62,WNW,287,7.5,15.0,87,0.00,CLR,,0.00,WeatherDisplay:10.37,2013-02-11 17:15:00,
2013-02-11 11:18:00,30.5,27.1,29.62,NW,305,9.9,13.8,87,0.00,CLR,,0.00,WeatherDisplay:10.37,2013-02-11 17:18:00,
2013-02-11 11:19:00,30.5,27.1,29.63,SW,236,5.9,10.0,87,0.00,CLR,,0.00,WeatherDisplay:10.37,2013-02-11 17:19:00,
2013-02-11 11:20:00,30.5,27.1,29.63,WSW,251,6.7,10.4,87,0.00,CLR,,0.00,WeatherDisplay:10.37,2013-02-11 17:20:00,
2013-02-11 11:23:00,30.4,27.0,29.63,WSW,258,11.7,20.7,87,0.00,CLR,,0.00,WeatherDisplay:10.37,2013-02-11 17:23:00,
2013-02-11 11:25:00,30.4,27.0,29.63,WSW,246,9.7,17.3,87,0.00,CLR,,0.00,WeatherDisplay:10.37,2013-02-11 17:25:00,
2013-02-11 11:28:00,30.3,26.6,29.63,West,268,10.7,18.4,86,0.00,CLR,,0.00,WeatherDisplay:10.37,2013-02-11 17:28:00,
2013-02-11 11:30:00,30.2,26.5,29.62,West,277,11.1,17.3,86,0.00,CLR,,0.00,WeatherDisplay:10.37,2013-02-11 17:30:00,
2013-02-11 11:31:00,30.2,26.5,29.62,WSW,258,8.9,10.4,86,0.00,CLR,,0.00,WeatherDisplay:10.37,2013-02-11 17:31:00,
2013-02-11 11:33:00,30.2,26.5,29.62,West,270,9.3,16.1,86,0.00,CLR,,0.00,WeatherDisplay:10.37,2013-02-11 17:33:00,
2013-02-11 11:35:00,30.1,26.4,29.62,NW,304,9.9,15.2,86,0.00,CLR,,0.00,WeatherDisplay:10.37,2013-02-11 17:35:00,
2013-02-11 11:36:00,30.2,26.5,29.62,West,265,10.1,15.0,86,0.00,CLR,,0.00,WeatherDisplay:10.37,2013-02-11 17:36:00,
2013-02-11 11:37:00,30.1,26.4,29.63,WSW,248,9.9,15.0,86,0.00,CLR,,0.00,WeatherDisplay:10.37,2013-02-11 17:37:00,
2013-02-11 11:38:00,30.2,26.5,29.62,WNW,287,7.9,13.8,86,0.00,CLR,,0.00,WeatherDisplay:10.37,2013-02-11 17:38:00,
2013-02-11 11:40:00,30.1,26.4,29.63,West,270,8.8,10.4,86,0.00,CLR,,0.00,WeatherDisplay:10.37,2013-02-11 17:40:00,
2013-02-11 11:41:00,30.1,26.4,29.63,West,261,8.5,14.0,86,0.00,CLR,,0.00,WeatherDisplay:10.37,2013-02-11 17:41:00,
2013-02-11 11:42:00,30.2,26.5,29.63,WNW,294,8.5,18.4,86,0.00,CLR,,0.00,WeatherDisplay:10.37,2013-02-11 17:42:00,
2013-02-11 11:43:00,30.2,26.5,29.63,WSW,256,10.8,18.4,86,0.00,CLR,,0.00,WeatherDisplay:10.37,2013-02-11 17:43:00,
2013-02-11 11:45:00,30.2,26.5,29.64,WSW,250,9.3,14.9,86,0.00,CLR,,0.00,WeatherDisplay:10.37,2013-02-11 17:45:00,
2013-02-11 11:46:00,30.1,26.4,29.64,West,275,10.5,18.4,86,0.00,CLR,,0.00,WeatherDisplay:10.37,2013-02-11 17:46:00,
2013-02-11 11:47:00,30.2,26.5,29.64,WNW,287,9.9,18.4,86,0.00,CLR,,0.00,WeatherDisplay:10.37,2013-02-11 17:47:00,
2013-02-11 11:48:00,30.2,26.5,29.64,WSW,254,9.6,14.2,86,0.00,CLR,,0.00,WeatherDisplay:10.37,2013-02-11 17:48:00,
2013-02-11 11:50:00,30.1,26.1,29.64,NW,304,10.4,13.8,85,0.00,CLR,,0.00,WeatherDisplay:10.37,2013-02-11 17:50:00,
2013-02-11 11:51:00,30.0,26.0,29.64,WNW,291,10.1,15.0,85,0.00,CLR,,0.00,WeatherDisplay:10.37,2013-02-11 17:51:00,
2013-02-11 11:52:00,30.0,26.0,29.64,West,281,11.0,15.0,85,0.00,CLR,,0.00,WeatherDisplay:10.37,2013-02-11 17:52:00,
2013-02-11 11:53:00,29.9,25.9,29.64,West,275,12.0,18.4,85,0.00,CLR,,0.00,WeatherDisplay:10.37,2013-02-11 17:53:00,
2013-02-11 11:55:00,29.9,25.9,29.64,West,268,7.1,10.4,85,0.00,CLR,,0.00,WeatherDisplay:10.37,2013-02-11 17:55:00,
2013-02-11 11:56:00,30.0,26.3,29.64,WSW,257,9.2,12.7,86,0.00,CLR,,0.00,WeatherDisplay:10.37,2013-02-11 17:56:00,
2013-02-11 11:57:00,30.0,26.3,29.64,West,265,9.3,12.7,86,0.00,CLR,,0.00,WeatherDisplay:10.37,2013-02-11 17:57:00,
2013-02-11 11:59:00,30.0,26.3,29.64,WSW,256,7.3,9.2,86,0.00,CLR,,0.00,WeatherDisplay:10.37,2013-02-11 17:59:00,
2013-02-11 12:01:00,29.9,26.2,29.64,WNW,301,5.2,10.4,86,0.00,CLR,,0.00,WeatherDisplay:10.37,2013-02-11 18:01:00,
2013-02-11 12:02:00,29.9,26.2,29.64,West,263,3.2,9.2,86,0.00,CLR,,0.00,WeatherDisplay:10.37,2013-02-11 18:02:00,
2013-02-11 12:04:00,30.0,26.3,29.64,West,274,10.6,12.7,86,0.00,CLR,,0.00,WeatherDisplay:10.37,2013-02-11 18:04:00,
2013-02-11 12:06:00,29.9,26.2,29.65,WNW,282,7.5,11.5,86,0.00,CLR,,0.00,WeatherDisplay:10.37,2013-02-11 18:06:00,
2013-02-11 12:07:00,29.9,26.2,29.65,West,274,10.2,16.1,86,0.00,CLR,,0.00,WeatherDisplay:10.37,2013-02-11 18:07:00,
2013-02-11 12:09:00,29.9,26.2,29.65,WSW,257,5.9,11.5,86,0.00,CLR,,0.00,WeatherDisplay:10.37,2013-02-11 18:09:00,
2013-02-11 12:11:00,29.8,26.1,29.65,West,274,7.9,12.7,86,0.00,CLR,,0.00,WeatherDisplay:10.37,2013-02-11 18:11:00,
2013-02-11 12:12:00,29.8,26.1,29.65,West,267,7.3,15.0,86,0.00,CLR,,0.00,WeatherDisplay:10.37,2013-02-11 18:12:00,
2013-02-11 12:14:00,29.8,25.8,29.65,WNW,282,9.4,17.6,85,0.00,CLR,,0.00,WeatherDisplay:10.37,2013-02-11 18:14:00,
2013-02-11 12:16:00,29.6,25.6,29.65,West,275,7.1,11.5,85,0.00,CLR,,0.00,WeatherDisplay:10.37,2013-02-11 18:16:00,
2013-02-11 12:17:00,29.6,25.6,29.65,West,268,10.5,21.9,85,0.00,CLR,,0.00,WeatherDisplay:10.37,2013-02-11 18:17:00,
2013-02-11 12:19:00,29.5,25.5,29.66,West,270,9.2,13.8,85,0.00,CLR,,0.00,WeatherDisplay:10.37,2013-02-11 18:19:00,
2013-02-11 12:21:00,29.5,25.5,29.66,West,274,10.4,16.1,85,0.00,CLR,,0.00,WeatherDisplay:10.37,2013-02-11 18:21:00,
2013-02-11 12:22:00,29.4,25.2,29.66,West,277,10.9,16.1,84,0.00,CLR,,0.00,WeatherDisplay:10.37,2013-02-11 18:22:00,
2013-02-11 12:24:00,29.4,25.2,29.66,West,271,9.0,16.1,84,0.00,CLR,,0.00,WeatherDisplay:10.37,2013-02-11 18:24:00,
2013-02-11 12:26:00,29.3,25.1,29.66,WNW,284,7.5,10.4,84,0.00,CLR,,0.00,WeatherDisplay:10.37,2013-02-11 18:26:00,
2013-02-11 12:27:00,29.2,25.0,29.66,WSW,253,7.7,15.0,84,0.00,CLR,,0.00,WeatherDisplay:10.37,2013-02-11 18:27:00,
2013-02-11 12:29:00,29.2,25.0,29.66,WSW,254,8.0,15.0,84,0.00,CLR,,0.00,WeatherDisplay:10.37,2013-02-11 18:29:00,
2013-02-11 12:31:00,29.2,24.7,29.66,West,270,11.0,27.6,83,0.00,CLR,,0.00,WeatherDisplay:10.37,2013-02-11 18:31:00,
2013-02-11 12:32:00,29.1,24.6,29.66,West,267,9.0,24.2,83,0.00,CLR,,0.00,WeatherDisplay:10.37,2013-02-11 18:32:00,
2013-02-11 12:33:00,29.2,24.7,29.66,West,270,8.6,24.2,83,0.00,CLR,,0.00,WeatherDisplay:10.37,2013-02-11 18:33:00,
2013-02-11 12:35:00,29.1,24.6,29.66,WSW,239,11.2,16.1,83,0.00,CLR,,0.00,WeatherDisplay:10.37,2013-02-11 18:35:00,
2013-02-11 12:36:00,29.0,24.5,29.67,WNW,292,9.6,18.4,83,0.00,CLR,,0.00,WeatherDisplay:10.37,2013-02-11 18:36:00,
2013-02-11 12:38:00,29.0,24.8,29.67,West,260,7.4,12.9,84,0.00,CLR,,0.00,WeatherDisplay:10.37,2013-02-11 18:38:00,
2013-02-11 12:40:00,28.9,24.4,29.67,West,268,12.8,24.2,83,0.00,CLR,,0.00,WeatherDisplay:10.37,2013-02-11 18:40:00,
2013-02-11 12:42:00,28.8,24.3,29.67,WNW,287,14.2,19.6,83,0.00,CLR,,0.00,WeatherDisplay:10.37,2013-02-11 18:42:00,
2013-02-11 12:43:00,28.8,24.6,29.67,West,265,11.6,25.3,84,0.00,CLR,,0.00,WeatherDisplay:10.37,2013-02-11 18:43:00,
2013-02-11 12:45:00,28.7,24.5,29.67,WNW,302,11.4,18.4,84,0.00,CLR,,0.00,WeatherDisplay:10.37,2013-02-11 18:45:00,
2013-02-11 12:47:00,28.7,24.8,29.67,West,274,10.7,13.4,85,0.00,CLR,,0.00,WeatherDisplay:10.37,2013-02-11 18:47:00,
2013-02-11 12:48:00,28.6,24.4,29.67,WNW,301,10.8,19.6,84,0.00,CLR,,0.00,WeatherDisplay:10.37,2013-02-11 18:48:00,
2013-02-11 12:50:00,28.7,24.5,29.67,WSW,251,13.4,17.3,84,0.00,CLR,,0.00,WeatherDisplay:10.37,2013-02-11 18:50:00,
2013-02-11 12:52:00,28.7,24.8,29.68,West,278,8.8,19.6,85,0.00,CLR,,0.00,WeatherDisplay:10.37,2013-02-11 18:52:00,
2013-02-11 12:53:00,28.6,24.7,29.68,West,278,12.0,12.0,85,0.00,CLR,,0.00,WeatherDisplay:10.37,2013-02-11 18:53:00,
2013-02-11 12:54:00,28.6,24.7,29.68,WNW,284,9.1,12.7,85,0.00,CLR,,0.00,WeatherDisplay:10.37,2013-02-11 18:54:00,
2013-02-11 12:55:00,28.7,24.8,29.68,NW,309,9.0,12.7,85,0.00,CLR,,0.00,WeatherDisplay:10.37,2013-02-11 18:55:00,
2013-02-11 12:57:00,28.6,24.7,29.68,NW,325,7.0,20.7,85,0.00,CLR,,0.00,WeatherDisplay:10.37,2013-02-11 18:57:00,
2013-02-11 12:58:00,28.6,24.7,29.68,West,271,7.7,16.3,85,0.00,CLR,,0.00,WeatherDisplay:10.37,2013-02-11 18:58:00,
2013-02-11 12:59:00,28.6,24.7,29.68,WNW,292,8.8,15.0,85,0.00,CLR,,0.00,WeatherDisplay:10.37,2013-02-11 18:59:00,
2013-02-11 13:00:00,28.6,24.7,29.68,WSW,257,8.9,16.0,85,0.00,CLR,,0.00,WeatherDisplay:10.37,2013-02-11 19:00:00,
2013-02-11 13:02:00,28.6,24.4,29.68,WNW,301,11.4,18.4,84,0.00,CLR,,0.00,WeatherDisplay:10.37,2013-02-11 19:02:00,
2013-02-11 13:03:00,28.5,24.3,29.68,West,278,12.9,20.7,84,0.00,CLR,,0.00,WeatherDisplay:10.37,2013-02-11 19:03:00,
2013-02-11 13:04:00,28.5,24.3,29.68,West,281,8.7,16.3,84,0.00,CLR,,0.00,WeatherDisplay:10.37,2013-02-11 19:04:00,
2013-02-11 13:05:00,28.5,24.3,29.68,West,268,10.6,15.7,84,0.00,CLR,,0.00,WeatherDisplay:10.37,2013-02-11 19:05:00,
2013-02-11 13:07:00,28.6,24.4,29.69,West,274,8.9,16.1,84,0.00,CLR,,0.00,WeatherDisplay:10.37,2013-02-11 19:07:00,
2013-02-11 13:08:00,28.6,24.4,29.69,WSW,247,8.6,12.7,84,0.00,CLR,,0.00,WeatherDisplay:10.37,2013-02-11 19:08:00,
2013-02-11 13:09:00,28.5,24.3,29.69,WNW,291,10.1,15.0,84,0.00,CLR,,0.00,WeatherDisplay:10.37,2013-02-11 19:09:00,
2013-02-11 13:10:00,28.6,24.4,29.69,WNW,298,7.3,15.0,84,0.00,CLR,,0.00,WeatherDisplay:10.37,2013-02-11 19:10:00,
2013-02-11 13:12:00,28.7,24.5,29.69,WNW,282,4.8,12.7,84,0.00,CLR,,0.00,WeatherDisplay:10.37,2013-02-11 19:12:00,
2013-02-11 13:13:00,28.7,24.5,29.69,SW,226,6.8,11.5,84,0.00,CLR,,0.00,WeatherDisplay:10.37,2013-02-11 19:13:00,
2013-02-11 13:15:00,28.7,24.5,29.69,West,260,8.9,14.0,84,0.00,CLR,,0.00,WeatherDisplay:10.37,2013-02-11 19:15:00,
2013-02-11 13:17:00,28.7,24.5,29.69,West,264,7.8,14.8,84,0.00,CLR,,0.00,WeatherDisplay:10.37,2013-02-11 19:17:00,
2013-02-11 13:18:00,28.6,24.4,29.69,NW,318,8.6,17.3,84,0.00,CLR,,0.00,WeatherDisplay:10.37,2013-02-11 19:18:00,
2013-02-11 13:20:00,28.6,24.4,29.69,WSW,254,9.5,17.6,84,0.00,CLR,,0.00,WeatherDisplay:10.37,2013-02-11 19:20:00,
2013-02-11 13:21:00,28.5,24.3,29.69,WNW,284,10.3,17.3,84,0.00,CLR,,0.00,WeatherDisplay:10.37,2013-02-11 19:21:00,
2013-02-11 13:22:00,28.5,24.3,29.70,WNW,285,8.7,13.8,84,0.00,CLR,,0.00,WeatherDisplay:10.37,2013-02-11 19:22:00,
2013-02-11 13:24:00,28.5,24.3,29.70,WNW,284,8.6,16.4,84,0.00,CLR,,0.00,WeatherDisplay:10.37,2013-02-11 19:24:00,
2013-02-11 13:25:00,28.5,24.3,29.70,SW,227,10.3,20.7,84,0.00,CLR,,0.00,WeatherDisplay:10.37,2013-02-11 19:25:00,
2013-02-11 13:26:00,28.4,24.2,29.70,NW,305,5.1,20.7,84,0.00,CLR,,0.00,WeatherDisplay:10.37,2013-02-11 19:26:00,
2013-02-11 13:27:00,28.4,24.2,29.70,West,264,9.2,15.0,84,0.00,CLR,,0.00,WeatherDisplay:10.37,2013-02-11 19:27:00,
2013-02-11 13:29:00,28.4,24.2,29.70,WNW,302,6.0,9.2,84,0.00,CLR,,0.00,WeatherDisplay:10.37,2013-02-11 19:29:00,
2013-02-11 13:30:00,28.3,24.1,29.70,West,271,10.3,16.1,84,0.00,CLR,,0.00,WeatherDisplay:10.37,2013-02-11 19:30:00,
2013-02-11 13:31:00,28.4,24.2,29.70,West,281,9.3,13.8,84,0.00,CLR,,0.00,WeatherDisplay:10.37,2013-02-11 19:31:00,
2013-02-11 13:32:00,28.4,24.2,29.70,West,267,8.8,15.0,84,0.00,CLR,,0.00,WeatherDisplay:10.37,2013-02-11 19:32:00,
2013-02-11 13:34:00,28.4,24.2,29.70,West,280,8.5,18.4,84,0.00,CLR,,0.00,WeatherDisplay:10.37,2013-02-11 19:34:00,
2013-02-11 13:35:00,28.4,24.2,29.70,SW,234,8.0,10.4,84,0.00,CLR,,0.00,WeatherDisplay:10.37,2013-02-11 19:35:00,
2013-02-11 13:36:00,28.4,24.2,29.70,West,260,6.0,15.0,84,0.00,CLR,,0.00,WeatherDisplay:10.37,2013-02-11 19:36:00,
2013-02-11 13:38:00,28.4,24.2,29.70,WNW,282,6.1,11.7,84,0.00,CLR,,0.00,WeatherDisplay:10.37,2013-02-11 19:38:00,
2013-02-11 13:39:00,28.4,24.2,29.70,WSW,257,7.5,12.7,84,0.00,CLR,,0.00,WeatherDisplay:10.37,2013-02-11 19:39:00,
2013-02-11 13:40:00,28.4,24.2,29.70,West,268,7.5,17.3,84,0.00,CLR,,0.00,WeatherDisplay:10.37,2013-02-11 19:40:00,
2013-02-11 13:42:00,28.4,24.2,29.70,WSW,251,8.4,10.4,84,0.00,CLR,,0.00,WeatherDisplay:10.37,2013-02-11 19:42:00,
2013-02-11 13:43:00,28.4,24.2,29.70,SW,223,8.4,16.1,84,0.00,CLR,,0.00,WeatherDisplay:10.37,2013-02-11 19:43:00,
2013-02-11 13:44:00,28.4,24.2,29.71,West,271,7.2,12.7,84,0.00,CLR,,0.00,WeatherDisplay:10.37,2013-02-11 19:44:00,
2013-02-11 13:46:00,28.4,24.2,29.71,SW,227,7.4,16.1,84,0.00,CLR,,0.00,WeatherDisplay:10.37,2013-02-11 19:46:00,
2013-02-11 13:47:00,28.4,24.2,29.71,West,267,9.0,16.0,84,0.00,CLR,,0.00,WeatherDisplay:10.37,2013-02-11 19:47:00,
2013-02-11 13:48:00,28.3,24.1,29.71,West,264,9.1,16.1,84,0.00,CLR,,0.00,WeatherDisplay:10.37,2013-02-11 19:48:00,
2013-02-11 13:49:00,28.3,24.1,29.71,NW,313,7.9,15.0,84,0.00,CLR,,0.00,WeatherDisplay:10.37,2013-02-11 19:49:00,
2013-02-11 13:51:00,28.2,23.7,29.71,WSW,257,11.5,16.1,83,0.00,CLR,,0.00,WeatherDisplay:10.37,2013-02-11 19:51:00,
2013-02-11 13:52:00,28.3,23.8,29.71,WSW,237,8.5,18.4,83,0.00,CLR,,0.00,WeatherDisplay:10.37,2013-02-11 19:52:00,
2013-02-11 13:53:00,28.2,24.0,29.71,West,278,8.4,12.7,84,0.00,CLR,,0.00,WeatherDisplay:10.37,2013-02-11 19:53:00,
2013-02-11 13:54:00,28.2,24.0,29.71,West,281,10.1,12.7,84,0.00,CLR,,0.00,WeatherDisplay:10.37,2013-02-11 19:54:00,
2013-02-11 13:56:00,28.2,24.0,29.71,West,263,7.7,14.1,84,0.00,CLR,,0.00,WeatherDisplay:10.37,2013-02-11 19:56:00,
2013-02-11 13:57:00,28.2,24.0,29.71,West,264,10.2,18.4,84,0.00,CLR,,0.00,WeatherDisplay:10.37,2013-02-11 19:57:00,
2013-02-11 13:58:00,28.3,24.1,29.71,West,264,7.1,13.8,84,0.00,CLR,,0.00,WeatherDisplay:10.37,2013-02-11 19:58:00,
2013-02-11 13:59:00,28.2,24.0,29.71,West,272,7.7,13.8,84,0.00,CLR,,0.00,WeatherDisplay:10.37,2013-02-11 19:59:00,
2013-02-11 14:01:00,28.2,23.7,29.72,WSW,251,8.6,13.8,83,0.00,CLR,,0.00,WeatherDisplay:10.37,2013-02-11 20:01:00,
2013-02-11 14:02:00,28.2,23.7,29.72,WSW,256,8.4,13.8,83,0.00,CLR,,0.00,WeatherDisplay:10.37,2013-02-11 20:02:00,
2013-02-11 14:03:00,28.3,23.8,29.72,WNW,294,10.7,17.3,83,0.00,CLR,,0.00,WeatherDisplay:10.37,2013-02-11 20:03:00,
2013-02-11 14:04:00,28.1,23.6,29.72,WSW,241,9.4,17.3,83,0.00,CLR,,0.00,WeatherDisplay:10.37,2013-02-11 20:04:00,
2013-02-11 14:06:00,28.2,23.7,29.72,West,274,8.9,15.0,83,0.00,CLR,,0.00,WeatherDisplay:10.37,2013-02-11 20:06:00,
2013-02-11 14:07:00,28.2,23.7,29.72,West,274,7.3,13.8,83,0.00,CLR,,0.00,WeatherDisplay:10.37,2013-02-11 20:07:00,
2013-02-11 14:08:00,28.2,24.0,29.72,WSW,251,9.1,13.8,84,0.00,CLR,,0.00,WeatherDisplay:10.37,2013-02-11 20:08:00,
2013-02-11 14:09:00,28.2,24.0,29.72,West,280,8.2,13.8,84,0.00,CLR,,0.00,WeatherDisplay:10.37,2013-02-11 20:09:00,
2013-02-11 14:12:00,28.2,24.0,29.72,West,272,8.7,15.0,84,0.00,CLR,,0.00,WeatherDisplay:10.37,2013-02-11 20:12:00,
2013-02-11 14:13:00,28.2,24.0,29.72,WSW,251,12.1,20.7,84,0.00,CLR,,0.00,WeatherDisplay:10.37,2013-02-11 20:13:00,
2013-02-11 14:14:00,28.2,23.7,29.72,West,263,6.3,17.3,83,0.00,CLR,,0.00,WeatherDisplay:10.37,2013-02-11 20:14:00,
2013-02-11 14:17:00,28.2,24.0,29.73,West,278,7.6,15.2,84,0.00,CLR,,0.00,WeatherDisplay:10.37,2013-02-11 20:17:00,
2013-02-11 14:18:00,28.3,24.1,29.73,West,270,9.4,17.3,84,0.00,CLR,,0.00,WeatherDisplay:10.37,2013-02-11 20:18:00,
2013-02-11 14:19:00,28.2,24.0,29.73,WSW,256,9.8,15.0,84,0.00,CLR,,0.00,WeatherDisplay:10.37,2013-02-11 20:19:00,
2013-02-11 14:22:00,28.2,23.7,29.73,WNW,285,8.7,20.7,83,0.00,CLR,,0.00,WeatherDisplay:10.37,2013-02-11 20:22:00,
2013-02-11 14:23:00,28.3,23.8,29.73,NW,306,9.1,15.0,83,0.00,CLR,,0.00,WeatherDisplay:10.37,2013-02-11 20:23:00,
2013-02-11 14:24:00,28.2,24.0,29.73,SW,229,9.2,15.0,84,0.00,CLR,,0.00,WeatherDisplay:10.37,2013-02-11 20:24:00,
2013-02-11 14:27:00,28.2,23.4,29.73,WNW,292,10.4,17.3,82,0.00,CLR,,0.00,WeatherDisplay:10.37,2013-02-11 20:27:00,
2013-02-11 14:28:00,28.2,23.4,29.73,WSW,256,8.8,16.1,82,0.00,CLR,,0.00,WeatherDisplay:10.37,2013-02-11 20:28:00,
2013-02-11 14:29:00,28.2,23.4,29.73,WNW,291,10.4,16.1,82,0.00,CLR,,0.00,WeatherDisplay:10.37,2013-02-11 20:29:00,
2013-02-11 14:32:00,28.2,23.4,29.73,West,272,8.8,14.8,82,0.00,CLR,,0.00,WeatherDisplay:10.37,2013-02-11 20:32:00,
2013-02-11 14:33:00,28.2,23.4,29.73,WSW,258,9.3,15.0,82,0.00,CLR,,0.00,WeatherDisplay:10.37,2013-02-11 20:33:00,
2013-02-11 14:34:00,28.1,23.3,29.73,West,267,9.7,15.0,82,0.00,CLR,,0.00,WeatherDisplay:10.37,2013-02-11 20:34:00,
2013-02-11 14:37:00,28.1,23.3,29.74,West,270,10.8,19.6,82,0.00,CLR,,0.00,WeatherDisplay:10.37,2013-02-11 20:37:00,
2013-02-11 14:38:00,28.1,23.3,29.73,WNW,284,9.7,23.0,82,0.00,CLR,,0.00,WeatherDisplay:10.37,2013-02-11 20:38:00,
2013-02-11 14:39:00,28.1,23.3,29.73,West,272,9.9,23.0,82,0.00,CLR,,0.00,WeatherDisplay:10.37,2013-02-11 20:39:00,
2013-02-11 14:42:00,28.2,23.1,29.74,West,272,8.5,17.3,81,0.00,CLR,,0.00,WeatherDisplay:10.37,2013-02-11 20:42:00,
2013-02-11 14:44:00,28.2,23.1,29.74,WSW,243,7.9,11.5,81,0.00,CLR,,0.00,WeatherDisplay:10.37,2013-02-11 20:44:00,
2013-02-11 14:47:00,28.3,23.2,29.74,WNW,282,6.3,13.7,81,0.00,CLR,,0.00,WeatherDisplay:10.37,2013-02-11 20:47:00,
2013-02-11 14:49:00,28.2,23.1,29.74,West,261,7.9,13.8,81,0.00,CLR,,0.00,WeatherDisplay:10.37,2013-02-11 20:49:00,
2013-02-11 14:52:00,28.2,23.1,29.75,West,275,8.4,16.1,81,0.00,CLR,,0.00,WeatherDisplay:10.37,2013-02-11 20:52:00,
2013-02-11 14:54:00,28.0,22.9,29.75,West,263,9.4,13.8,81,0.00,CLR,,0.00,WeatherDisplay:10.37,2013-02-11 20:54:00,
2013-02-11 14:57:00,28.1,23.0,29.75,WNW,282,9.5,17.3,81,0.00,CLR,,0.00,WeatherDisplay:10.37,2013-02-11 20:57:00,
2013-02-11 14:59:00,28.0,22.6,29.75,WSW,247,10.6,23.0,80,0.00,CLR,,0.00,WeatherDisplay:10.37,2013-02-11 20:59:00,
2013-02-11 15:00:00,28.1,22.7,29.75,West,280,10.6,23.0,80,0.00,CLR,,0.00,WeatherDisplay:10.37,2013-02-11 21:00:00,
2013-02-11 15:02:00,27.9,22.5,29.75,WNW,288,9.4,13.8,80,0.00,CLR,,0.00,WeatherDisplay:10.37,2013-02-11 21:02:00,
2013-02-11 15:04:00,28.0,22.3,29.75,WNW,282,10.3,17.7,79,0.00,CLR,,0.00,WeatherDisplay:10.37,2013-02-11 21:04:00,
2013-02-11 15:05:00,27.9,22.2,29.75,NW,306,10.3,18.4,79,0.00,CLR,,0.00,WeatherDisplay:10.37,2013-02-11 21:05:00,
2013-02-11 15:07:00,27.9,22.2,29.75,WNW,295,9.1,15.0,79,0.00,CLR,,0.00,WeatherDisplay:10.37,2013-02-11 21:07:00,
2013-02-11 15:09:00,27.9,22.2,29.76,West,267,11.2,21.9,79,0.00,CLR,,0.00,WeatherDisplay:10.37,2013-02-11 21:09:00,
2013-02-11 15:10:00,27.9,22.2,29.76,West,278,9.6,21.9,79,0.00,CLR,,0.00,WeatherDisplay:10.37,2013-02-11 21:10:00,
2013-02-11 15:13:00,27.9,22.2,29.76,WNW,288,6.9,12.7,79,0.00,CLR,,0.00,WeatherDisplay:10.37,2013-02-11 21:13:00,
2013-02-11 15:14:00,28.0,22.3,29.76,West,278,9.5,15.0,79,0.00,CLR,,0.00,WeatherDisplay:10.37,2013-02-11 21:14:00,
2013-02-11 15:15:00,28.0,22.3,29.76,WNW,291,9.8,15.0,79,0.00,CLR,,0.00,WeatherDisplay:10.37,2013-02-11 21:15:00,
2013-02-11 15:18:00,27.9,22.2,29.76,NNE,31,8.6,13.8,79,0.00,CLR,,0.00,WeatherDisplay:10.37,2013-02-11 21:18:00,
2013-02-11 15:19:00,27.9,21.9,29.76,NW,311,11.7,19.6,78,0.00,CLR,,0.00,WeatherDisplay:10.37,2013-02-11 21:19:00,
2013-02-11 15:20:00,27.8,21.8,29.76,West,275,11.3,19.6,78,0.00,CLR,,0.00,WeatherDisplay:10.37,2013-02-11 21:20:00,
2013-02-11 15:23:00,27.9,21.9,29.76,WNW,291,9.8,19.6,78,0.00,CLR,,0.00,WeatherDisplay:10.37,2013-02-11 21:23:00,
2013-02-11 15:24:00,27.7,21.7,29.76,West,271,14.5,21.9,78,0.00,CLR,,0.00,WeatherDisplay:10.37,2013-02-11 21:24:00,
2013-02-11 15:25:00,27.7,21.7,29.76,West,278,11.6,21.9,78,0.00,CLR,,0.00,WeatherDisplay:10.37,2013-02-11 21:25:00,
2013-02-11 15:28:00,27.7,21.7,29.77,West,268,8.3,21.9,78,0.00,CLR,,0.00,WeatherDisplay:10.37,2013-02-11 21:28:00,
2013-02-11 15:29:00,27.7,21.7,29.77,WNW,287,7.2,12.7,78,0.00,CLR,,0.00,WeatherDisplay:10.37,2013-02-11 21:29:00,
2013-02-11 15:30:00,27.7,21.7,29.77,WSW,246,10.4,16.5,78,0.00,CLR,,0.00,WeatherDisplay:10.37,2013-02-11 21:30:00,
2013-02-11 15:33:00,27.6,21.6,29.77,WNW,299,9.7,16.1,78,0.00,CLR,,0.00,WeatherDisplay:10.37,2013-02-11 21:33:00,
2013-02-11 15:35:00,27.6,21.6,29.77,WNW,292,10.7,18.4,78,0.00,CLR,,0.00,WeatherDisplay:10.37,2013-02-11 21:35:00,
2013-02-11 15:36:00,27.6,21.6,29.77,WNW,289,10.7,17.3,78,0.00,CLR,,0.00,WeatherDisplay:10.37,2013-02-11 21:36:00,
2013-02-11 15:39:00,27.5,21.8,29.77,NNW,336,6.3,13.8,79,0.00,CLR,,0.00,WeatherDisplay:10.37,2013-02-11 21:39:00,
2013-02-11 15:40:00,27.4,21.7,29.78,West,271,7.1,13.8,79,0.00,CLR,,0.00,WeatherDisplay:10.37,2013-02-11 21:40:00,
2013-02-11 15:41:00,27.5,21.8,29.78,WNW,291,9.8,13.8,79,0.00,CLR,,0.00,WeatherDisplay:10.37,2013-02-11 21:41:00,
2013-02-11 15:44:00,27.4,21.7,29.78,WNW,296,8.8,13.8,79,0.00,CLR,,0.00,WeatherDisplay:10.37,2013-02-11 21:44:00,
2013-02-11 15:45:00,27.4,21.7,29.78,West,268,8.5,13.8,79,0.00,CLR,,0.00,WeatherDisplay:10.37,2013-02-11 21:45:00,
2013-02-11 15:46:00,27.4,21.7,29.78,West,274,6.2,13.8,79,0.00,CLR,,0.00,WeatherDisplay:10.37,2013-02-11 21:46:00,
2013-02-11 15:49:00,27.4,21.7,29.78,NW,318,7.5,9.2,79,0.00,CLR,,0.00,WeatherDisplay:10.37,2013-02-11 21:49:00,
2013-02-11 15:50:00,27.4,21.7,29.78,West,268,8.3,10.8,79,0.00,CLR,,0.00,WeatherDisplay:10.37,2013-02-11 21:50:00,
2013-02-11 15:51:00,27.3,21.6,29.78,West,275,8.4,13.5,79,0.00,CLR,,0.00,WeatherDisplay:10.37,2013-02-11 21:51:00,
2013-02-11 15:54:00,27.2,21.8,29.79,WNW,294,7.8,12.7,80,0.00,CLR,,0.00,WeatherDisplay:10.37,2013-02-11 21:54:00,
2013-02-11 15:55:00,27.2,21.8,29.78,NW,308,9.3,12.7,80,0.00,CLR,,0.00,WeatherDisplay:10.37,2013-02-11 21:55:00,
2013-02-11 15:57:00,27.3,21.9,29.79,West,277,6.2,9.4,80,0.00,CLR,,0.00,WeatherDisplay:10.37,2013-02-11 21:57:00,
2013-02-11 15:59:00,27.3,22.2,29.79,WNW,282,8.3,13.8,81,0.00,CLR,,0.00,WeatherDisplay:10.37,2013-02-11 21:59:00,
2013-02-11 16:00:00,27.2,22.1,29.79,WNW,296,7.2,13.8,81,0.00,CLR,,0.00,WeatherDisplay:10.37,2013-02-11 22:00:00,
2013-02-11 16:01:00,27.2,22.1,29.79,West,274,6.5,15.0,81,0.00,CLR,,0.00,WeatherDisplay:10.37,2013-02-11 22:01:00,
2013-02-11 16:02:00,27.2,22.1,29.79,WNW,296,7.0,10.4,81,0.00,CLR,,0.00,WeatherDisplay:10.37,2013-02-11 22:02:00,
2013-02-11 16:04:00,27.2,22.4,29.79,WNW,291,7.6,13.8,82,0.00,CLR,,0.00,WeatherDisplay:10.37,2013-02-11 22:04:00,
2013-02-11 16:05:00,27.2,22.4,29.79,West,281,7.7,12.8,82,0.00,CLR,,0.00,WeatherDisplay:10.37,2013-02-11 22:05:00,
2013-02-11 16:06:00,27.2,22.4,29.79,South,189,7.8,12.7,82,0.00,CLR,,0.00,WeatherDisplay:10.37,2013-02-11 22:06:00,
2013-02-11 16:07:00,27.1,22.3,29.79,WSW,254,10.3,15.0,82,0.00,CLR,,0.00,WeatherDisplay:10.37,2013-02-11 22:07:00,
2013-02-11 16:10:00,27.1,22.3,29.80,WNW,295,9.2,9.2,82,0.00,CLR,,0.00,WeatherDisplay:10.37,2013-02-11 22:10:00,
2013-02-11 16:11:00,27.1,22.3,29.80,West,271,9.1,15.0,82,0.00,CLR,,0.00,WeatherDisplay:10.37,2013-02-11 22:11:00,
2013-02-11 16:12:00,27.0,22.2,29.80,SW,222,10.4,13.8,82,0.00,CLR,,0.00,WeatherDisplay:10.37,2013-02-11 22:12:00,
2013-02-11 16:15:00,27.0,22.2,29.80,WSW,258,6.7,12.7,82,0.00,CLR,,0.00,WeatherDisplay:10.37,2013-02-11 22:15:00,
2013-02-11 16:16:00,27.0,22.2,29.80,WNW,294,7.1,12.7,82,0.00,CLR,,0.00,WeatherDisplay:10.37,2013-02-11 22:16:00,
2013-02-11 16:17:00,26.9,22.1,29.80,West,272,10.0,16.1,82,0.00,CLR,,0.00,WeatherDisplay:10.37,2013-02-11 22:17:00,
2013-02-11 16:20:00,26.9,22.1,29.80,West,271,7.8,11.5,82,0.00,CLR,,0.00,WeatherDisplay:10.37,2013-02-11 22:20:00,
2013-02-11 16:21:00,26.9,22.1,29.80,West,264,8.4,16.1,82,0.00,CLR,,0.00,WeatherDisplay:10.37,2013-02-11 22:21:00,
2013-02-11 16:22:00,26.8,21.8,29.80,NW,312,10.7,17.3,81,0.00,CLR,,0.00,WeatherDisplay:10.37,2013-02-11 22:22:00,
2013-02-11 16:25:00,26.8,21.8,29.80,WNW,288,8.7,16.1,81,0.00,CLR,,0.00,WeatherDisplay:10.37,2013-02-11 22:25:00,
2013-02-11 16:26:00,26.8,21.8,29.81,West,270,9.4,17.3,81,0.00,CLR,,0.00,WeatherDisplay:10.37,2013-02-11 22:26:00,
2013-02-11 16:27:00,26.8,21.8,29.81,West,277,9.4,16.1,81,0.00,CLR,,0.00,WeatherDisplay:10.37,2013-02-11 22:27:00,
2013-02-11 16:30:00,26.7,21.7,29.81,WNW,292,4.6,8.1,81,0.00,CLR,,0.00,WeatherDisplay:10.37,2013-02-11 22:30:00,
2013-02-11 16:31:00,26.7,21.7,29.81,West,278,6.1,12.7,81,0.00,CLR,,0.00,WeatherDisplay:10.37,2013-02-11 22:31:00,
2013-02-11 16:33:00,26.7,21.7,29.81,West,281,9.6,16.1,81,0.00,CLR,,0.00,WeatherDisplay:10.37,2013-02-11 22:33:00,
2013-02-11 16:35:00,26.7,21.7,29.81,West,272,10.8,17.3,81,0.00,CLR,,0.00,WeatherDisplay:10.37,2013-02-11 22:35:00,
2013-02-11 16:36:00,26.6,21.6,29.81,WNW,299,10.8,17.3,81,0.00,CLR,,0.00,WeatherDisplay:10.37,2013-02-11 22:36:00,
2013-02-11 16:38:00,26.6,21.6,29.81,NW,305,6.7,17.3,81,0.00,CLR,,0.00,WeatherDisplay:10.37,2013-02-11 22:38:00,
2013-02-11 16:40:00,26.6,21.8,29.81,WNW,294,9.2,16.1,82,0.00,CLR,,0.00,WeatherDisplay:10.37,2013-02-11 22:40:00,
2013-02-11 16:41:00,26.6,21.8,29.81,WNW,288,9.7,16.1,82,0.00,CLR,,0.00,WeatherDisplay:10.37,2013-02-11 22:41:00,
2013-02-11 16:43:00,26.5,21.5,29.81,NW,304,7.6,12.7,81,0.00,CLR,,0.00,WeatherDisplay:10.37,2013-02-11 22:43:00,
2013-02-11 16:46:00,26.5,21.5,29.81,WSW,256,6.7,13.8,81,0.00,CLR,,0.00,WeatherDisplay:10.37,2013-02-11 22:46:00,
2013-02-11 16:48:00,26.4,21.4,29.82,West,281,7.7,11.5,81,0.00,CLR,,0.00,WeatherDisplay:10.37,2013-02-11 22:48:00,
2013-02-11 16:51:00,26.3,21.3,29.82,WNW,288,7.3,15.0,81,0.00,CLR,,0.00,WeatherDisplay:10.37,2013-02-11 22:51:00,
2013-02-11 16:53:00,26.4,21.7,29.82,West,277,4.5,6.9,82,0.00,CLR,,0.00,WeatherDisplay:10.37,2013-02-11 22:53:00,
2013-02-11 16:56:00,26.4,21.7,29.82,West,274,4.2,11.6,82,0.00,CLR,,0.00,WeatherDisplay:10.37,2013-02-11 22:56:00,
2013-02-11 16:58:00,26.3,21.6,29.82,WNW,284,8.3,12.7,82,0.00,CLR,,0.00,WeatherDisplay:10.37,2013-02-11 22:58:00,
2013-02-11 17:01:00,26.2,21.5,29.82,West,281,6.8,12.7,82,0.00,CLR,,0.00,WeatherDisplay:10.37,2013-02-11 23:01:00,
2013-02-11 17:02:00,26.2,21.5,29.82,West,272,10.0,15.0,82,0.00,CLR,,0.00,WeatherDisplay:10.37,2013-02-11 23:02:00,
2013-02-11 17:03:00,26.2,21.5,29.82,SW,229,8.7,15.0,82,0.00,CLR,,0.00,WeatherDisplay:10.37,2013-02-11 23:03:00,
2013-02-11 17:06:00,26.2,21.5,29.83,WNW,301,7.3,11.5,82,0.00,CLR,,0.00,WeatherDisplay:10.37,2013-02-11 23:06:00,
2013-02-11 17:07:00,26.2,21.5,29.83,WNW,294,8.0,11.5,82,0.00,CLR,,0.00,WeatherDisplay:10.37,2013-02-11 23:07:00,
2013-02-11 17:09:00,26.2,21.2,29.83,NW,312,8.8,16.1,81,0.00,CLR,,0.00,WeatherDisplay:10.37,2013-02-11 23:09:00,
2013-02-11 17:11:00,26.2,21.2,29.83,WNW,287,8.6,13.8,81,0.00,CLR,,0.00,WeatherDisplay:10.37,2013-02-11 23:11:00,
2013-02-11 17:12:00,26.1,21.1,29.83,WNW,287,9.5,13.8,81,0.00,CLR,,0.00,WeatherDisplay:10.37,2013-02-11 23:12:00,
2013-02-11 17:15:00,26.1,21.1,29.83,West,277,6.8,13.8,81,0.00,CLR,,0.00,WeatherDisplay:10.37,2013-02-11 23:15:00,
2013-02-11 17:16:00,26.0,21.0,29.83,West,281,4.9,9.2,81,0.00,CLR,,0.00,WeatherDisplay:10.37,2013-02-11 23:16:00,
2013-02-11 17:17:00,26.0,21.0,29.83,WNW,287,4.8,9.2,81,0.00,CLR,,0.00,WeatherDisplay:10.37,2013-02-11 23:17:00,
2013-02-11 17:21:00,26.0,21.0,29.84,West,260,5.8,11.5,81,0.00,CLR,,0.00,WeatherDisplay:10.37,2013-02-11 23:21:00,
2013-02-11 17:22:00,25.9,20.9,29.84,West,275,10.8,12.7,81,0.00,CLR,,0.00,WeatherDisplay:10.37,2013-02-11 23:22:00,
2013-02-11 17:26:00,25.9,20.9,29.84,WNW,302,6.0,16.1,81,0.00,CLR,,0.00,WeatherDisplay:10.37,2013-02-11 23:26:00,
2013-02-11 17:27:00,25.9,20.9,29.84,WNW,291,6.7,9.2,81,0.00,CLR,,0.00,WeatherDisplay:10.37,2013-02-11 23:27:00,
2013-02-11 17:31:00,25.9,20.9,29.84,WNW,287,5.7,10.4,81,0.00,CLR,,0.00,WeatherDisplay:10.37,2013-02-11 23:31:00,
2013-02-11 17:32:00,25.9,20.9,29.85,NW,322,6.0,8.1,81,0.00,CLR,,0.00,WeatherDisplay:10.37,2013-02-11 23:32:00,
2013-02-11 17:36:00,25.8,20.8,29.85,WSW,250,5.8,10.1,81,0.00,CLR,,0.00,WeatherDisplay:10.37,2013-02-11 23:36:00,
2013-02-11 17:37:00,25.9,20.9,29.85,West,268,7.1,11.5,81,0.00,CLR,,0.00,WeatherDisplay:10.37,2013-02-11 23:37:00,
2013-02-11 17:41:00,25.9,20.9,29.85,NW,309,10.1,18.4,81,0.00,CLR,,0.00,WeatherDisplay:10.37,2013-02-11 23:41:00,
2013-02-11 17:42:00,25.8,20.8,29.85,WSW,248,7.0,13.8,81,0.00,CLR,,0.00,WeatherDisplay:10.37,2013-02-11 23:42:00,
2013-02-11 17:46:00,25.7,20.7,29.85,West,270,9.0,15.0,81,0.00,CLR,,0.00,WeatherDisplay:10.37,2013-02-11 23:46:00,
2013-02-11 17:47:00,25.7,20.7,29.85,WNW,289,7.8,15.0,81,0.00,CLR,,0.00,WeatherDisplay:10.37,2013-02-11 23:47:00,
2013-02-11 17:51:00,25.7,20.7,29.85,WSW,239,8.7,12.7,81,0.00,CLR,,0.00,WeatherDisplay:10.37,2013-02-11 23:51:00,
2013-02-11 17:52:00,25.7,20.7,29.85,WNW,299,6.4,12.7,81,0.00,CLR,,0.00,WeatherDisplay:10.37,2013-02-11 23:52:00,
2013-02-11 17:56:00,25.7,20.7,29.85,West,274,11.0,18.4,81,0.00,CLR,,0.00,WeatherDisplay:10.37,2013-02-11 23:56:00,
2013-02-11 17:57:00,25.6,20.6,29.85,NW,305,10.9,18.4,81,0.00,CLR,,0.00,WeatherDisplay:10.37,2013-02-11 23:57:00,
2013-02-11 18:01:00,25.6,20.6,29.86,West,264,7.0,10.4,81,0.00,CLR,,0.00,WeatherDisplay:10.37,2013-02-12 00:01:00,
2013-02-11 18:02:00,25.6,20.6,29.86,WNW,282,3.7,10.4,81,0.00,CLR,,0.00,WeatherDisplay:10.37,2013-02-12 00:02:00,
2013-02-11 18:03:00,25.5,20.5,29.86,West,278,8.0,9.3,81,0.00,CLR,,0.00,WeatherDisplay:10.37,2013-02-12 00:03:00,
2013-02-11 18:06:00,25.6,20.6,29.86,West,278,7.9,12.7,81,0.00,CLR,,0.00,WeatherDisplay:10.37,2013-02-12 00:06:00,
2013-02-11 18:07:00,25.5,20.5,29.86,WNW,295,6.1,12.7,81,0.00,CLR,,0.00,WeatherDisplay:10.37,2013-02-12 00:07:00,
2013-02-11 18:08:00,25.5,20.5,29.86,West,268,9.3,13.4,81,0.00,CLR,,0.00,WeatherDisplay:10.37,2013-02-12 00:08:00,
2013-02-11 18:11:00,25.5,20.5,29.86,SW,229,7.4,11.5,81,0.00,CLR,,0.00,WeatherDisplay:10.37,2013-02-12 00:11:00,
2013-02-11 18:12:00,25.5,20.5,29.86,WNW,288,10.4,19.6,81,0.00,CLR,,0.00,WeatherDisplay:10.37,2013-02-12 00:12:00,
2013-02-11 18:13:00,25.5,20.5,29.87,WNW,291,7.9,19.6,81,0.00,CLR,,0.00,WeatherDisplay:10.37,2013-02-12 00:13:00,
2013-02-11 18:17:00,25.5,20.5,29.86,SW,229,7.5,11.5,81,0.00,CLR,,0.00,WeatherDisplay:10.37,2013-02-12 00:17:00,
2013-02-11 18:18:00,25.5,20.5,29.86,WNW,292,7.5,13.8,81,0.00,CLR,,0.00,WeatherDisplay:10.37,2013-02-12 00:18:00,
2013-02-11 18:22:00,25.5,20.5,29.87,WSW,254,4.4,11.5,81,0.00,CLR,,0.00,WeatherDisplay:10.37,2013-02-12 00:22:00,
2013-02-11 18:23:00,25.5,20.5,29.87,WSW,241,6.7,8.1,81,0.00,CLR,,0.00,WeatherDisplay:10.37,2013-02-12 00:23:00,
2013-02-11 18:27:00,25.4,20.4,29.87,WNW,287,8.5,13.8,81,0.00,CLR,,0.00,WeatherDisplay:10.37,2013-02-12 00:27:00,
2013-02-11 18:28:00,25.4,20.4,29.87,West,277,7.6,13.8,81,0.00,CLR,,0.00,WeatherDisplay:10.37,2013-02-12 00:28:00,
2013-02-11 18:32:00,25.4,20.4,29.87,West,281,6.3,9.2,81,0.00,CLR,,0.00,WeatherDisplay:10.37,2013-02-12 00:32:00,
2013-02-11 18:33:00,25.4,20.4,29.88,WNW,301,9.2,9.2,81,0.00,CLR,,0.00,WeatherDisplay:10.37,2013-02-12 00:33:00,
2013-02-11 18:34:00,25.4,20.4,29.88,WNW,298,6.5,15.0,81,0.00,CLR,,0.00,WeatherDisplay:10.37,2013-02-12 00:34:00,
2013-02-11 18:37:00,25.4,20.4,29.88,West,261,6.4,10.4,81,0.00,CLR,,0.00,WeatherDisplay:10.37,2013-02-12 00:37:00,
2013-02-11 18:38:00,25.4,20.4,29.88,West,267,6.7,10.4,81,0.00,CLR,,0.00,WeatherDisplay:10.37,2013-02-12 00:38:00,
2013-02-11 18:39:00,25.4,20.4,29.88,WNW,284,8.1,10.4,81,0.00,CLR,,0.00,WeatherDisplay:10.37,2013-02-12 00:39:00,
2013-02-11 18:42:00,25.4,20.4,29.88,West,265,8.1,11.5,81,0.00,CLR,,0.00,WeatherDisplay:10.37,2013-02-12 00:42:00,
2013-02-11 18:43:00,25.4,20.4,29.88,West,271,5.5,11.5,81,0.00,CLR,,0.00,WeatherDisplay:10.37,2013-02-12 00:43:00,
2013-02-11 18:44:00,25.4,20.4,29.88,WNW,287,6.4,9.2,81,0.00,CLR,,0.00,WeatherDisplay:10.37,2013-02-12 00:44:00,
2013-02-11 18:47:00,25.4,20.7,29.88,WSW,243,4.0,8.1,82,0.00,CLR,,0.00,WeatherDisplay:10.37,2013-02-12 00:47:00,
2013-02-11 18:48:00,25.3,20.6,29.88,West,281,4.5,6.9,82,0.00,CLR,,0.00,WeatherDisplay:10.37,2013-02-12 00:48:00,
2013-02-11 18:49:00,25.5,20.8,29.88,WNW,288,6.6,6.9,82,0.00,CLR,,0.00,WeatherDisplay:10.37,2013-02-12 00:49:00,
2013-02-11 18:52:00,25.4,20.7,29.88,West,263,5.6,8.1,82,0.00,CLR,,0.00,WeatherDisplay:10.37,2013-02-12 00:52:00,
2013-02-11 18:53:00,25.3,20.6,29.88,West,267,6.0,10.4,82,0.00,CLR,,0.00,WeatherDisplay:10.37,2013-02-12 00:53:00,
2013-02-11 18:54:00,25.4,20.7,29.88,West,280,8.2,10.4,82,0.00,CLR,,0.00,WeatherDisplay:10.37,2013-02-12 00:54:00,
2013-02-11 18:58:00,25.3,20.9,29.89,WNW,299,5.5,8.4,83,0.00,CLR,,0.00,WeatherDisplay:10.37,2013-02-12 00:58:00,
2013-02-11 18:59:00,25.2,20.8,29.89,West,277,6.7,11.5,83,0.00,CLR,,0.00,WeatherDisplay:10.37,2013-02-12 00:59:00,
2013-02-11 19:03:00,25.2,20.8,29.89,WNW,285,7.5,10.4,83,0.00,CLR,,0.00,WeatherDisplay:10.37,2013-02-12 01:03:00,
2013-02-11 19:04:00,25.2,20.8,29.89,WNW,301,4.8,9.2,83,0.00,CLR,,0.00,WeatherDisplay:10.37,2013-02-12 01:04:00,
2013-02-11 19:08:00,25.1,20.7,29.89,WNW,295,5.5,7.7,83,0.00,CLR,,0.00,WeatherDisplay:10.37,2013-02-12 01:08:00,
2013-02-11 19:10:00,25.1,20.7,29.89,WNW,301,6.2,9.2,83,0.00,CLR,,0.00,WeatherDisplay:10.37,2013-02-12 01:10:00,
2013-02-11 19:13:00,25.1,20.7,29.89,West,267,7.3,12.7,83,0.00,CLR,,0.00,WeatherDisplay:10.37,2013-02-12 01:13:00,
2013-02-11 19:14:00,25.1,20.7,29.89,WNW,288,5.2,8.1,83,0.00,CLR,,0.00,WeatherDisplay:10.37,2013-02-12 01:14:00,
2013-02-11 19:15:00,25.0,20.6,29.89,WNW,291,7.2,9.2,83,0.00,CLR,,0.00,WeatherDisplay:10.37,2013-02-12 01:15:00,
2013-02-11 19:18:00,25.0,20.6,29.89,WSW,258,5.7,12.7,83,0.00,CLR,,0.00,WeatherDisplay:10.37,2013-02-12 01:18:00,
2013-02-11 19:19:00,25.0,20.6,29.89,WNW,292,6.4,9.2,83,0.00,CLR,,0.00,WeatherDisplay:10.37,2013-02-12 01:19:00,
2013-02-11 19:20:00,25.0,20.6,29.89,WNW,298,7.4,9.2,83,0.00,CLR,,0.00,WeatherDisplay:10.37,2013-02-12 01:20:00,
2013-02-11 19:23:00,25.0,20.6,29.89,WNW,299,2.7,9.8,83,0.00,CLR,,0.00,WeatherDisplay:10.37,2013-02-12 01:23:00,
2013-02-11 19:24:00,25.0,20.6,29.89,West,268,10.8,15.0,83,0.00,CLR,,0.00,WeatherDisplay:10.37,2013-02-12 01:24:00,
2013-02-11 19:25:00,25.0,20.3,29.90,West,280,6.6,15.0,82,0.00,CLR,,0.00,WeatherDisplay:10.37,2013-02-12 01:25:00,
2013-02-11 19:28:00,25.0,20.3,29.90,West,265,7.2,11.3,82,0.00,CLR,,0.00,WeatherDisplay:10.37,2013-02-12 01:28:00,
2013-02-11 19:29:00,24.8,20.1,29.90,West,264,5.8,11.5,82,0.00,CLR,,0.00,WeatherDisplay:10.37,2013-02-12 01:29:00,
2013-02-11 19:30:00,25.0,20.3,29.90,West,268,7.9,15.0,82,0.00,CLR,,0.00,WeatherDisplay:10.37,2013-02-12 01:30:00,
2013-02-11 19:33:00,24.9,20.5,29.90,WNW,292,7.7,9.2,83,0.00,CLR,,0.00,WeatherDisplay:10.37,2013-02-12 01:33:00,
2013-02-11 19:34:00,25.0,20.6,29.90,SSW,193,6.2,10.4,83,0.00,CLR,,0.00,WeatherDisplay:10.37,2013-02-12 01:34:00,
2013-02-11 19:35:00,24.9,20.2,29.90,WSW,257,9.0,15.0,82,0.00,CLR,,0.00,WeatherDisplay:10.37,2013-02-12 01:35:00,
2013-02-11 19:38:00,24.9,20.2,29.91,West,263,7.6,10.4,82,0.00,CLR,,0.00,WeatherDisplay:10.37,2013-02-12 01:38:00,
2013-02-11 19:39:00,24.9,20.2,29.91,NW,309,3.7,13.8,82,0.00,CLR,,0.00,WeatherDisplay:10.37,2013-02-12 01:39:00,
2013-02-11 19:40:00,24.9,20.5,29.91,WNW,295,4.1,11.5,83,0.00,CLR,,0.00,WeatherDisplay:10.37,2013-02-12 01:40:00,
2013-02-11 19:44:00,24.9,20.5,29.90,WNW,287,5.1,10.4,83,0.00,CLR,,0.00,WeatherDisplay:10.37,2013-02-12 01:44:00,
2013-02-11 19:46:00,24.8,20.4,29.91,West,270,5.4,10.4,83,0.00,CLR,,0.00,WeatherDisplay:10.37,2013-02-12 01:46:00,
2013-02-11 19:49:00,24.9,20.5,29.91,WNW,287,5.3,9.2,83,0.00,CLR,,0.00,WeatherDisplay:10.37,2013-02-12 01:49:00,
2013-02-11 19:51:00,24.9,20.5,29.91,WNW,284,6.0,6.9,83,0.00,CLR,,0.00,WeatherDisplay:10.37,2013-02-12 01:51:00,
2013-02-11 19:54:00,24.8,20.4,29.91,WNW,298,5.8,9.2,83,0.00,CLR,,0.00,WeatherDisplay:10.37,2013-02-12 01:54:00,
2013-02-11 19:56:00,24.8,20.4,29.91,WSW,256,5.8,9.2,83,0.00,CLR,,0.00,WeatherDisplay:10.37,2013-02-12 01:56:00,
2013-02-11 19:59:00,24.8,20.4,29.91,NNW,330,5.1,5.8,83,0.00,CLR,,0.00,WeatherDisplay:10.37,2013-02-12 01:59:00,
2013-02-11 20:01:00,24.7,20.6,29.91,WSW,257,4.5,10.4,84,0.00,CLR,,0.00,WeatherDisplay:10.37,2013-02-12 02:01:00,
2013-02-11 20:04:00,24.6,20.5,29.91,WNW,289,7.0,12.7,84,0.00,CLR,,0.00,WeatherDisplay:10.37,2013-02-12 02:04:00,
2013-02-11 20:06:00,24.5,20.1,29.91,NW,305,5.7,11.5,83,0.00,CLR,,0.00,WeatherDisplay:10.37,2013-02-12 02:06:00,
2013-02-11 20:09:00,24.6,20.5,29.91,WNW,289,8.6,8.6,84,0.00,CLR,,0.00,WeatherDisplay:10.37,2013-02-12 02:09:00,
2013-02-11 20:10:00,24.6,20.5,29.91,West,271,7.9,13.8,84,0.00,CLR,,0.00,WeatherDisplay:10.37,2013-02-12 02:10:00,
2013-02-11 20:11:00,24.5,20.4,29.91,WNW,294,4.4,9.2,84,0.00,CLR,,0.00,WeatherDisplay:10.37,2013-02-12 02:11:00,
2013-02-11 20:14:00,24.5,20.4,29.91,West,267,7.3,10.4,84,0.00,CLR,,0.00,WeatherDisplay:10.37,2013-02-12 02:14:00,
2013-02-11 20:15:00,24.6,20.5,29.91,West,281,6.5,10.4,84,0.00,CLR,,0.00,WeatherDisplay:10.37,2013-02-12 02:15:00,
2013-02-11 20:16:00,24.4,20.3,29.91,West,267,2.8,6.9,84,0.00,CLR,,0.00,WeatherDisplay:10.37,2013-02-12 02:16:00,
2013-02-11 20:19:00,24.5,20.4,29.91,WNW,287,2.9,11.5,84,0.00,CLR,,0.00,WeatherDisplay:10.37,2013-02-12 02:19:00,
2013-02-11 20:20:00,24.5,20.4,29.91,NW,305,3.7,13.4,84,0.00,CLR,,0.00,WeatherDisplay:10.37,2013-02-12 02:20:00,
2013-02-11 20:21:00,24.4,20.0,29.91,West,264,9.5,15.0,83,0.00,CLR,,0.00,WeatherDisplay:10.37,2013-02-12 02:21:00,
2013-02-11 20:24:00,24.3,19.9,29.91,WNW,298,8.7,11.5,83,0.00,CLR,,0.00,WeatherDisplay:10.37,2013-02-12 02:24:00,
2013-02-11 20:25:00,24.3,19.9,29.91,WNW,302,8.4,11.5,83,0.00,CLR,,0.00,WeatherDisplay:10.37,2013-02-12 02:25:00,
2013-02-11 20:26:00,24.3,19.9,29.91,West,260,8.9,13.4,83,0.00,CLR,,0.00,WeatherDisplay:10.37,2013-02-12 02:26:00,
2013-02-11 20:29:00,24.4,20.0,29.91,West,268,8.0,12.7,83,0.00,CLR,,0.00,WeatherDisplay:10.37,2013-02-12 02:29:00,
2013-02-11 20:30:00,24.4,20.0,29.91,West,263,8.6,15.1,83,0.00,CLR,,0.00,WeatherDisplay:10.37,2013-02-12 02:30:00,
2013-02-11 20:31:00,24.4,19.7,29.91,NW,318,8.3,15.0,82,0.00,CLR,,0.00,WeatherDisplay:10.37,2013-02-12 02:31:00,
2013-02-11 20:34:00,24.5,19.8,29.92,NW,316,7.2,11.5,82,0.00,CLR,,0.00,WeatherDisplay:10.37,2013-02-12 02:34:00,
2013-02-11 20:35:00,24.5,19.8,29.92,WNW,282,7.3,11.5,82,0.00,CLR,,0.00,WeatherDisplay:10.37,2013-02-12 02:35:00,
2013-02-11 20:36:00,24.4,19.7,29.92,West,281,8.1,16.1,82,0.00,CLR,,0.00,WeatherDisplay:10.37,2013-02-12 02:36:00,
2013-02-11 20:39:00,24.5,19.8,29.92,WNW,302,7.3,15.0,82,0.00,CLR,,0.00,WeatherDisplay:10.37,2013-02-12 02:39:00,
2013-02-11 20:40:00,24.5,19.8,29.92,SW,232,6.9,15.0,82,0.00,CLR,,0.00,WeatherDisplay:10.37,2013-02-12 02:40:00,
2013-02-11 20:41:00,24.5,19.8,29.92,WNW,284,7.7,12.6,82,0.00,CLR,,0.00,WeatherDisplay:10.37,2013-02-12 02:41:00,
2013-02-11 20:45:00,24.3,19.6,29.92,WSW,257,6.9,10.4,82,0.00,CLR,,0.00,WeatherDisplay:10.37,2013-02-12 02:45:00,
2013-02-11 20:46:00,24.3,19.6,29.92,WNW,288,7.5,11.5,82,0.00,CLR,,0.00,WeatherDisplay:10.37,2013-02-12 02:46:00,
2013-02-11 20:47:00,24.3,19.6,29.92,NW,315,8.5,11.5,82,0.00,CLR,,0.00,WeatherDisplay:10.37,2013-02-12 02:47:00,
2013-02-11 20:50:00,24.4,20.0,29.93,WNW,294,4.2,8.1,83,0.00,CLR,,0.00,WeatherDisplay:10.37,2013-02-12 02:50:00,
2013-02-11 20:51:00,24.4,20.0,29.92,WNW,291,7.4,9.2,83,0.00,CLR,,0.00,WeatherDisplay:10.37,2013-02-12 02:51:00,
2013-02-11 20:52:00,24.5,20.1,29.92,West,270,5.7,12.7,83,0.00,CLR,,0.00,WeatherDisplay:10.37,2013-02-12 02:52:00,
2013-02-11 20:55:00,24.4,20.0,29.93,WNW,287,3.4,10.4,83,0.00,CLR,,0.00,WeatherDisplay:10.37,2013-02-12 02:55:00,
2013-02-11 20:56:00,24.4,20.0,29.93,WNW,301,4.6,8.1,83,0.00,CLR,,0.00,WeatherDisplay:10.37,2013-02-12 02:56:00,
2013-02-11 20:57:00,24.3,19.6,29.93,WNW,291,7.0,9.2,82,0.00,CLR,,0.00,WeatherDisplay:10.37,2013-02-12 02:57:00,
2013-02-11 21:00:00,24.4,20.0,29.93,WNW,294,4.5,11.5,83,0.00,CLR,,0.00,WeatherDisplay:10.37,2013-02-12 03:00:00,
2013-02-11 21:01:00,24.3,19.9,29.93,NNW,340,3.0,11.5,83,0.00,CLR,,0.00,WeatherDisplay:10.37,2013-02-12 03:01:00,
2013-02-11 21:02:00,24.4,20.0,29.93,WNW,292,5.2,10.4,83,0.00,CLR,,0.00,WeatherDisplay:10.37,2013-02-12 03:02:00,
2013-02-11 21:05:00,24.3,19.9,29.93,NNW,335,5.0,9.2,83,0.00,CLR,,0.00,WeatherDisplay:10.37,2013-02-12 03:05:00,
2013-02-11 21:06:00,24.4,20.0,29.93,West,278,4.6,9.2,83,0.00,CLR,,0.00,WeatherDisplay:10.37,2013-02-12 03:06:00,
2013-02-11 21:07:00,24.2,19.8,29.93,NW,304,4.6,8.1,83,0.00,CLR,,0.00,WeatherDisplay:10.37,2013-02-12 03:07:00,
2013-02-11 21:10:00,24.4,20.0,29.93,WNW,287,4.5,9.2,83,0.00,CLR,,0.00,WeatherDisplay:10.37,2013-02-12 03:10:00,
2013-02-11 21:11:00,24.3,19.9,29.93,WNW,282,5.3,10.4,83,0.00,CLR,,0.00,WeatherDisplay:10.37,2013-02-12 03:11:00,
2013-02-11 21:13:00,24.3,19.9,29.93,NW,326,3.2,6.9,83,0.00,CLR,,0.00,WeatherDisplay:10.37,2013-02-12 03:13:00,
2013-02-11 21:15:00,24.3,19.9,29.93,West,278,0.1,3.0,83,0.00,CLR,,0.00,WeatherDisplay:10.37,2013-02-12 03:15:00,
2013-02-11 21:16:00,24.3,19.9,29.93,WNW,289,7.1,9.2,83,0.00,CLR,,0.00,WeatherDisplay:10.37,2013-02-12 03:16:00,
2013-02-11 21:18:00,24.4,20.3,29.93,NW,306,1.5,9.2,84,0.00,CLR,,0.00,WeatherDisplay:10.37,2013-02-12 03:18:00,
2013-02-11 21:20:00,24.3,20.2,29.93,West,272,6.4,9.2,84,0.00,CLR,,0.00,WeatherDisplay:10.37,2013-02-12 03:20:00,
2013-02-11 21:21:00,24.3,20.2,29.93,NW,326,6.2,9.2,84,0.00,CLR,,0.00,WeatherDisplay:10.37,2013-02-12 03:21:00,
2013-02-11 21:23:00,24.3,20.2,29.93,West,271,3.9,8.1,84,0.00,CLR,,0.00,WeatherDisplay:10.37,2013-02-12 03:23:00,
2013-02-11 21:25:00,24.3,20.2,29.93,WNW,295,5.2,8.1,84,0.00,CLR,,0.00,WeatherDisplay:10.37,2013-02-12 03:25:00,
2013-02-11 21:27:00,24.3,20.2,29.93,WNW,288,5.5,8.7,84,0.00,CLR,,0.00,WeatherDisplay:10.37,2013-02-12 03:27:00,
2013-02-11 21:28:00,24.2,20.1,29.93,West,278,4.5,9.2,84,0.00,CLR,,0.00,WeatherDisplay:10.37,2013-02-12 03:28:00,
2013-02-11 21:30:00,24.2,20.1,29.93,WNW,291,7.4,11.5,84,0.00,CLR,,0.00,WeatherDisplay:10.37,2013-02-12 03:30:00,
2013-02-11 21:31:00,24.2,19.8,29.93,WNW,287,8.3,11.5,83,0.00,CLR,,0.00,WeatherDisplay:10.37,2013-02-12 03:31:00,
2013-02-11 21:32:00,24.2,19.8,29.93,West,270,7.2,15.0,83,0.00,CLR,,0.00,WeatherDisplay:10.37,2013-02-12 03:32:00,
2013-02-11 21:33:00,24.2,19.8,29.93,West,260,6.0,11.3,83,0.00,CLR,,0.00,WeatherDisplay:10.37,2013-02-12 03:33:00,
2013-02-11 21:35:00,24.2,19.8,29.93,WNW,295,8.4,13.8,83,0.00,CLR,,0.00,WeatherDisplay:10.37,2013-02-12 03:35:00,
2013-02-11 21:36:00,24.2,19.8,29.93,WNW,296,7.6,13.8,83,0.00,CLR,,0.00,WeatherDisplay:10.37,2013-02-12 03:36:00,
2013-02-11 21:37:00,24.2,19.8,29.93,WNW,292,6.7,10.4,83,0.00,CLR,,0.00,WeatherDisplay:10.37,2013-02-12 03:37:00,
2013-02-11 21:38:00,24.2,19.8,29.93,WNW,295,7.5,11.5,83,0.00,CLR,,0.00,WeatherDisplay:10.37,2013-02-12 03:38:00,
2013-02-11 21:40:00,24.1,19.7,29.93,NW,306,6.6,11.5,83,0.00,CLR,,0.00,WeatherDisplay:10.37,2013-02-12 03:40:00,
2013-02-11 21:41:00,24.2,19.8,29.93,West,281,4.3,8.1,83,0.00,CLR,,0.00,WeatherDisplay:10.37,2013-02-12 03:41:00,
2013-02-11 21:42:00,24.2,19.8,29.93,WNW,299,4.7,8.1,83,0.00,CLR,,0.00,WeatherDisplay:10.37,2013-02-12 03:42:00,
2013-02-11 21:43:00,24.2,19.8,29.93,West,278,7.1,11.5,83,0.00,CLR,,0.00,WeatherDisplay:10.37,2013-02-12 03:43:00,
2013-02-11 21:46:00,24.1,19.7,29.93,WNW,289,7.5,9.2,83,0.00,CLR,,0.00,WeatherDisplay:10.37,2013-02-12 03:46:00,
2013-02-11 21:47:00,24.1,19.7,29.93,NW,305,8.4,10.4,83,0.00,CLR,,0.00,WeatherDisplay:10.37,2013-02-12 03:47:00,
2013-02-11 21:48:00,24.1,19.7,29.93,West,272,9.9,13.8,83,0.00,CLR,,0.00,WeatherDisplay:10.37,2013-02-12 03:48:00,
2013-02-11 21:51:00,24.0,19.6,29.93,WNW,288,7.1,11.5,83,0.00,CLR,,0.00,WeatherDisplay:10.37,2013-02-12 03:51:00,
2013-02-11 21:52:00,24.1,19.7,29.93,NW,318,8.4,15.0,83,0.00,CLR,,0.00,WeatherDisplay:10.37,2013-02-12 03:52:00,
2013-02-11 21:53:00,24.1,19.7,29.93,West,265,5.7,10.4,83,0.00,CLR,,0.00,WeatherDisplay:10.37,2013-02-12 03:53:00,
2013-02-11 21:56:00,24.0,19.6,29.93,WNW,292,4.4,8.1,83,0.00,CLR,,0.00,WeatherDisplay:10.37,2013-02-12 03:56:00,
2013-02-11 21:57:00,24.1,19.7,29.93,WNW,292,5.4,8.1,83,0.00,CLR,,0.00,WeatherDisplay:10.37,2013-02-12 03:57:00,
2013-02-11 21:58:00,24.1,19.7,29.93,WNW,284,4.1,6.9,83,0.00,CLR,,0.00,WeatherDisplay:10.37,2013-02-12 03:58:00,
2013-02-11 22:01:00,24.1,20.0,29.93,WSW,251,3.9,9.2,84,0.00,CLR,,0.00,WeatherDisplay:10.37,2013-02-12 04:01:00,
2013-02-11 22:02:00,24.0,19.9,29.94,NNW,336,5.8,8.1,84,0.00,CLR,,0.00,WeatherDisplay:10.37,2013-02-12 04:02:00,
2013-02-11 22:04:00,24.1,20.0,29.94,NNW,335,6.7,9.2,84,0.00,CLR,,0.00,WeatherDisplay:10.37,2013-02-12 04:04:00,
2013-02-11 22:06:00,24.0,19.9,29.94,WNW,291,4.4,12.7,84,0.00,CLR,,0.00,WeatherDisplay:10.37,2013-02-12 04:06:00,
2013-02-11 22:07:00,24.0,19.9,29.94,WNW,292,6.6,8.1,84,0.00,CLR,,0.00,WeatherDisplay:10.37,2013-02-12 04:07:00,
2013-02-11 22:08:00,24.0,19.9,29.94,NNW,335,6.7,11.5,84,0.00,CLR,,0.00,WeatherDisplay:10.37,2013-02-12 04:08:00,
2013-02-11 22:09:00,23.9,19.8,29.94,West,265,5.7,13.8,84,0.00,CLR,,0.00,WeatherDisplay:10.37,2013-02-12 04:09:00,
2013-02-11 22:11:00,23.9,19.5,29.94,WNW,289,6.6,9.2,83,0.00,CLR,,0.00,WeatherDisplay:10.37,2013-02-12 04:11:00,
2013-02-11 22:12:00,24.0,19.6,29.94,NW,312,8.4,9.2,83,0.00,CLR,,0.00,WeatherDisplay:10.37,2013-02-12 04:12:00,
2013-02-11 22:13:00,24.0,19.6,29.94,West,265,4.8,11.5,83,0.00,CLR,,0.00,WeatherDisplay:10.37,2013-02-12 04:13:00,
2013-02-11 22:14:00,24.0,19.6,29.94,WNW,287,5.7,9.3,83,0.00,CLR,,0.00,WeatherDisplay:10.37,2013-02-12 04:14:00,
2013-02-11 22:16:00,23.9,19.5,29.94,WNW,288,5.6,11.5,83,0.00,CLR,,0.00,WeatherDisplay:10.37,2013-02-12 04:16:00,
2013-02-11 22:17:00,24.0,19.6,29.94,WNW,299,8.1,10.4,83,0.00,CLR,,0.00,WeatherDisplay:10.37,2013-02-12 04:17:00,
2013-02-11 22:18:00,23.9,19.5,29.94,NW,315,5.5,10.4,83,0.00,CLR,,0.00,WeatherDisplay:10.37,2013-02-12 04:18:00,
2013-02-11 22:19:00,24.0,19.9,29.94,WNW,284,5.5,9.8,84,0.00,CLR,,0.00,WeatherDisplay:10.37,2013-02-12 04:19:00,
2013-02-11 22:21:00,23.8,19.7,29.94,West,270,4.5,6.9,84,0.00,CLR,,0.00,WeatherDisplay:10.37,2013-02-12 04:21:00,
2013-02-11 22:22:00,24.0,19.9,29.95,WNW,294,5.5,8.1,84,0.00,CLR,,0.00,WeatherDisplay:10.37,2013-02-12 04:22:00,
2013-02-11 22:23:00,24.0,19.9,29.94,West,281,8.0,8.1,84,0.00,CLR,,0.00,WeatherDisplay:10.37,2013-02-12 04:23:00,
2013-02-11 22:24:00,24.0,19.9,29.94,WNW,284,4.8,6.9,84,0.00,CLR,,0.00,WeatherDisplay:10.37,2013-02-12 04:24:00,
2013-02-11 22:26:00,23.9,19.8,29.95,West,264,4.0,11.5,84,0.00,CLR,,0.00,WeatherDisplay:10.37,2013-02-12 04:26:00,
2013-02-11 22:27:00,23.9,19.8,29.95,West,270,5.7,10.4,84,0.00,CLR,,0.00,WeatherDisplay:10.37,2013-02-12 04:27:00,
2013-02-11 22:28:00,23.9,19.8,29.95,NW,316,5.7,10.4,84,0.00,CLR,,0.00,WeatherDisplay:10.37,2013-02-12 04:28:00,
2013-02-11 22:29:00,23.9,19.8,29.95,WSW,251,5.9,9.2,84,0.00,CLR,,0.00,WeatherDisplay:10.37,2013-02-12 04:29:00,
2013-02-11 22:31:00,23.9,19.8,29.95,NW,315,7.2,11.5,84,0.00,CLR,,0.00,WeatherDisplay:10.37,2013-02-12 04:31:00,
2013-02-11 22:32:00,24.0,19.9,29.95,WNW,287,3.9,8.1,84,0.00,CLR,,0.00,WeatherDisplay:10.37,2013-02-12 04:32:00,
2013-02-11 22:33:00,23.9,19.8,29.95,WNW,291,2.0,5.8,84,0.00,CLR,,0.00,WeatherDisplay:10.37,2013-02-12 04:33:00,
2013-02-11 22:34:00,24.0,19.9,29.95,WNW,291,0.3,3.5,84,0.00,CLR,,0.00,WeatherDisplay:10.37,2013-02-12 04:34:00,
2013-02-11 22:36:00,23.8,19.7,29.95,West,268,1.9,8.1,84,0.00,CLR,,0.00,WeatherDisplay:10.37,2013-02-12 04:36:00,
2013-02-11 22:37:00,23.9,19.8,29.95,West,260,4.9,13.6,84,0.00,CLR,,0.00,WeatherDisplay:10.37,2013-02-12 04:37:00,
2013-02-11 22:38:00,23.9,19.8,29.95,WNW,294,8.1,13.8,84,0.00,CLR,,0.00,WeatherDisplay:10.37,2013-02-12 04:38:00,
2013-02-11 22:39:00,23.9,19.8,29.95,NW,311,2.9,8.1,84,0.00,CLR,,0.00,WeatherDisplay:10.37,2013-02-12 04:39:00,
2013-02-11 22:41:00,23.9,19.8,29.95,NW,308,7.3,12.7,84,0.00,CLR,,0.00,WeatherDisplay:10.37,2013-02-12 04:41:00,
2013-02-11 22:42:00,23.8,19.7,29.95,West,275,7.2,12.7,84,0.00,CLR,,0.00,WeatherDisplay:10.37,2013-02-12 04:42:00,
2013-02-11 22:43:00,23.9,19.8,29.95,WNW,284,2.6,9.8,84,0.00,CLR,,0.00,WeatherDisplay:10.37,2013-02-12 04:43:00,
2013-02-11 22:45:00,23.8,19.7,29.95,WNW,291,5.9,10.4,84,0.00,CLR,,0.00,WeatherDisplay:10.37,2013-02-12 04:45:00,
2013-02-11 22:46:00,23.7,19.6,29.95,West,278,6.0,12.4,84,0.00,CLR,,0.00,WeatherDisplay:10.37,2013-02-12 04:46:00,
2013-02-11 22:48:00,23.7,19.6,29.95,WNW,288,6.2,12.7,84,0.00,CLR,,0.00,WeatherDisplay:10.37,2013-02-12 04:48:00,
2013-02-11 22:50:00,23.8,19.7,29.95,West,264,3.4,6.9,84,0.00,CLR,,0.00,WeatherDisplay:10.37,2013-02-12 04:50:00,
2013-02-11 22:51:00,23.8,19.7,29.95,West,280,9.4,15.0,84,0.00,CLR,,0.00,WeatherDisplay:10.37,2013-02-12 04:51:00,
2013-02-11 22:53:00,23.8,19.7,29.94,NW,313,7.2,13.8,84,0.00,CLR,,0.00,WeatherDisplay:10.37,2013-02-12 04:53:00,
2013-02-11 22:55:00,23.6,19.2,29.94,NW,304,8.6,13.8,83,0.00,CLR,,0.00,WeatherDisplay:10.37,2013-02-12 04:55:00,
2013-02-11 22:56:00,23.7,19.3,29.95,West,280,6.2,10.4,83,0.00,CLR,,0.00,WeatherDisplay:10.37,2013-02-12 04:56:00,
2013-02-11 22:58:00,23.8,19.7,29.95,WNW,282,6.5,12.7,84,0.00,CLR,,0.00,WeatherDisplay:10.37,2013-02-12 04:58:00,
2013-02-11 23:00:00,23.8,19.7,29.95,NW,305,7.6,11.5,84,0.00,CLR,,0.00,WeatherDisplay:10.37,2013-02-12 05:00:00,
2013-02-11 23:05:00,23.6,19.5,29.95,WNW,298,5.6,10.4,84,0.00,CLR,,0.00,WeatherDisplay:10.37,2013-02-12 05:05:00,
2013-02-11 23:10:00,23.7,19.6,29.95,WNW,302,4.5,9.6,84,0.00,CLR,,0.00,WeatherDisplay:10.37,2013-02-12 05:10:00,
2013-02-11 23:11:00,23.6,19.5,29.94,NW,308,6.4,9.2,84,0.00,CLR,,0.00,WeatherDisplay:10.37,2013-02-12 05:11:00,
2013-02-11 23:15:00,23.7,19.6,29.94,WNW,295,4.8,8.1,84,0.00,CLR,,0.00,WeatherDisplay:10.37,2013-02-12 05:15:00,
2013-02-11 23:16:00,23.6,19.5,29.94,West,281,6.0,9.2,84,0.00,CLR,,0.00,WeatherDisplay:10.37,2013-02-12 05:16:00,
2013-02-11 23:20:00,23.7,19.6,29.94,West,275,0.0,3.5,84,0.00,CLR,,0.00,WeatherDisplay:10.37,2013-02-12 05:20:00,
2013-02-11 23:21:00,23.6,19.5,29.94,WSW,258,1.7,3.5,84,0.00,CLR,,0.00,WeatherDisplay:10.37,2013-02-12 05:21:00,
2013-02-11 23:25:00,23.6,19.5,29.95,West,263,3.2,4.6,84,0.00,CLR,,0.00,WeatherDisplay:10.37,2013-02-12 05:25:00,
2013-02-11 23:26:00,23.6,19.5,29.95,WSW,247,5.4,8.1,84,0.00,CLR,,0.00,WeatherDisplay:10.37,2013-02-12 05:26:00,
2013-02-11 23:27:00,23.6,19.5,29.95,West,270,1.3,8.1,84,0.00,CLR,,0.00,WeatherDisplay:10.37,2013-02-12 05:27:00,
2013-02-11 23:30:00,23.6,19.8,29.95,West,275,5.8,8.1,85,0.00,CLR,,0.00,WeatherDisplay:10.37,2013-02-12 05:30:00,
2013-02-11 23:31:00,23.5,19.7,29.95,WNW,302,2.5,9.2,85,0.00,CLR,,0.00,WeatherDisplay:10.37,2013-02-12 05:31:00,
2013-02-11 23:32:00,23.6,19.8,29.95,West,280,6.9,9.2,85,0.00,CLR,,0.00,WeatherDisplay:10.37,2013-02-12 05:32:00,
2013-02-11 23:35:00,23.5,19.7,29.95,West,270,3.7,6.9,85,0.00,CLR,,0.00,WeatherDisplay:10.37,2013-02-12 05:35:00,
2013-02-11 23:36:00,23.5,19.7,29.95,West,265,3.3,8.1,85,0.00,CLR,,0.00,WeatherDisplay:10.37,2013-02-12 05:36:00,
2013-02-11 23:37:00,23.4,19.6,29.95,WNW,291,3.4,8.1,85,0.00,CLR,,0.00,WeatherDisplay:10.37,2013-02-12 05:37:00,
2013-02-11 23:40:00,23.4,19.6,29.94,West,281,7.6,12.7,85,0.00,CLR,,0.00,WeatherDisplay:10.37,2013-02-12 05:40:00,
2013-02-11 23:41:00,23.4,19.6,29.95,WNW,295,5.7,10.4,85,0.00,CLR,,0.00,WeatherDisplay:10.37,2013-02-12 05:41:00,
2013-02-11 23:42:00,23.3,19.5,29.95,North,353,5.2,10.4,85,0.00,CLR,,0.00,WeatherDisplay:10.37,2013-02-12 05:42:00,
2013-02-11 23:45:00,23.4,19.6,29.95,NW,311,5.2,9.2,85,0.00,CLR,,0.00,WeatherDisplay:10.37,2013-02-12 05:45:00,
2013-02-11 23:46:00,23.4,19.6,29.95,WNW,288,3.7,7.8,85,0.00,CLR,,0.00,WeatherDisplay:10.37,2013-02-12 05:46:00,
2013-02-11 23:47:00,23.3,19.5,29.95,NW,311,4.9,6.9,85,0.00,CLR,,0.00,WeatherDisplay:10.37,2013-02-12 05:47:00,
2013-02-11 23:50:00,23.4,19.6,29.95,WNW,291,6.2,8.1,85,0.00,CLR,,0.00,WeatherDisplay:10.37,2013-02-12 05:50:00,
2013-02-11 23:51:00,23.4,19.6,29.95,WNW,291,6.2,8.1,85,0.00,CLR,,0.00,WeatherDisplay:10.37,2013-02-12 05:51:00,
2013-02-11 23:52:00,23.3,19.5,29.95,WNW,294,4.8,10.4,85,0.00,CLR,,0.00,WeatherDisplay:10.37,2013-02-12 05:52:00,
2013-02-11 23:55:00,23.3,19.2,29.95,NW,318,6.3,9.2,84,0.00,CLR,,0.00,WeatherDisplay:10.37,2013-02-12 05:55:00,
2013-02-11 23:56:00,23.3,19.2,29.95,WNW,282,6.7,9.2,84,0.00,CLR,,0.00,WeatherDisplay:10.37,2013-02-12 05:56:00,
2013-02-11 23:57:00,23.3,19.2,29.95,NW,312,3.9,12.7,84,0.00,CLR,,0.00,WeatherDisplay:10.37,2013-02-12 05:57:00,